SIA33B KSFO-WSSS
Flight info
| Callsign | SIA33B |
|---|---|
| Flight time | N/A |
| Altitude | 34000 |
| Route | GNNRR3 GNNRR DCT ALCOA DCT 39N140W 40N150W/N0496F360 40N160W 35N170W 31N180E/N0487F380 28N170E 25N160E 21N150E/N0487F400 17N140E DCT ENDAX P515 TOKON M767 TODAM/N0481F430 M767 TOMAN KARTO2B |
| Aircraft | A359/H-SDE2E3GHIJ3J4J5LM1ORWXY/LB1D1 |
Departure
| Time | 2026-05-06 06:44 |
|---|---|
| Airport | San Francisco International Airport (KSFO) |
Arrival
| Time | N/A |
|---|---|
| Airport | Singapore Changi Airport (WSSS) |
| Time | Latitude | Longitude | Altitude | Speed | Heading |
|---|---|---|---|---|---|
| 2026-05-06 05:19 | 37.61210 | -122.39064 | 28 ft | 0 kts | 117° |
| 2026-05-06 06:30 | 37.61212 | -122.39068 | 28 ft | 3 kts | 117° |
| 2026-05-06 06:30 | 37.61224 | -122.39098 | 27 ft | 4 kts | 117° |
| 2026-05-06 06:31 | 37.61235 | -122.39123 | 27 ft | 4 kts | 130° |
| 2026-05-06 06:31 | 37.61255 | -122.39142 | 27 ft | 4 kts | 167° |
| 2026-05-06 06:31 | 37.61281 | -122.39142 | 27 ft | 4 kts | 201° |
| 2026-05-06 06:31 | 37.61282 | -122.39142 | 27 ft | 4 kts | 208° |
| 2026-05-06 06:32 | 37.61258 | -122.39158 | 26 ft | 4 kts | 208° |
| 2026-05-06 06:32 | 37.61254 | -122.39161 | 25 ft | 0 kts | 208° |
| 2026-05-06 06:35 | 37.61231 | -122.39176 | 28 ft | 10 kts | 206° |
| 2026-05-06 06:35 | 37.61138 | -122.39184 | 28 ft | 15 kts | 153° |
| 2026-05-06 06:36 | 37.61076 | -122.39103 | 28 ft | 11 kts | 129° |
| 2026-05-06 06:36 | 37.61015 | -122.39007 | 28 ft | 20 kts | 129° |
| 2026-05-06 06:36 | 37.60914 | -122.38839 | 28 ft | 24 kts | 121° |
| 2026-05-06 06:36 | 37.60839 | -122.38659 | 28 ft | 22 kts | 118° |
| 2026-05-06 06:37 | 37.60821 | -122.38515 | 28 ft | 11 kts | 39° |
| 2026-05-06 06:37 | 37.60889 | -122.38495 | 28 ft | 10 kts | 17° |
| 2026-05-06 06:37 | 37.60965 | -122.38444 | 28 ft | 17 kts | 33° |
| 2026-05-06 06:37 | 37.61088 | -122.38343 | 28 ft | 23 kts | 29° |
| 2026-05-06 06:38 | 37.61226 | -122.38251 | 28 ft | 22 kts | 28° |
| 2026-05-06 06:38 | 37.61351 | -122.38172 | 28 ft | 15 kts | 27° |
| 2026-05-06 06:38 | 37.61400 | -122.38079 | 28 ft | 13 kts | 106° |
| 2026-05-06 06:38 | 37.61358 | -122.37978 | 28 ft | 13 kts | 117° |
| 2026-05-06 06:39 | 37.61313 | -122.37872 | 28 ft | 14 kts | 118° |
| 2026-05-06 06:39 | 37.61265 | -122.37756 | 28 ft | 18 kts | 117° |
| 2026-05-06 06:39 | 37.61228 | -122.37598 | 28 ft | 19 kts | 85° |
| 2026-05-06 06:39 | 37.61300 | -122.37469 | 28 ft | 19 kts | 33° |
| 2026-05-06 06:40 | 37.61418 | -122.37391 | 28 ft | 21 kts | 27° |
| 2026-05-06 06:40 | 37.61534 | -122.37287 | 28 ft | 20 kts | 54° |
| 2026-05-06 06:40 | 37.61550 | -122.37123 | 27 ft | 20 kts | 104° |
| 2026-05-06 06:40 | 37.61490 | -122.36967 | 28 ft | 20 kts | 124° |
| 2026-05-06 06:41 | 37.61403 | -122.36838 | 28 ft | 19 kts | 131° |
| 2026-05-06 06:41 | 37.61329 | -122.36699 | 28 ft | 19 kts | 118° |
| 2026-05-06 06:41 | 37.61267 | -122.36546 | 28 ft | 20 kts | 118° |
| 2026-05-06 06:41 | 37.61204 | -122.36394 | 28 ft | 20 kts | 117° |
| 2026-05-06 06:42 | 37.61138 | -122.36239 | 28 ft | 20 kts | 117° |
| 2026-05-06 06:42 | 37.61074 | -122.36085 | 28 ft | 20 kts | 117° |
| 2026-05-06 06:42 | 37.61078 | -122.35926 | 28 ft | 19 kts | 47° |
| 2026-05-06 06:42 | 37.61187 | -122.35890 | 28 ft | 16 kts | 319° |
| 2026-05-06 06:43 | 37.61243 | -122.36009 | 28 ft | 18 kts | 297° |
| 2026-05-06 06:43 | 37.61362 | -122.36294 | 28 ft | 62 kts | 298° |
| 2026-05-06 06:43 | 37.61645 | -122.36968 | 28 ft | 110 kts | 298° |
| 2026-05-06 06:43 | 37.62070 | -122.37989 | 30 ft | 151 kts | 297° |
| 2026-05-06 06:44 | 37.62561 | -122.39170 | 468 ft | 146 kts | 297° |
| 2026-05-06 06:44 | 37.63023 | -122.40264 | 874 ft | 146 kts | 298° |
| 2026-05-06 06:44 | 37.63533 | -122.41441 | 1118 ft | 157 kts | 298° |
| 2026-05-06 06:44 | 37.64076 | -122.42673 | 1385 ft | 166 kts | 297° |
| 2026-05-06 06:45 | 37.64658 | -122.43998 | 1594 ft | 180 kts | 297° |
| 2026-05-06 06:45 | 37.65293 | -122.45437 | 1818 ft | 195 kts | 298° |
| 2026-05-06 06:45 | 37.65981 | -122.47001 | 1973 ft | 213 kts | 298° |
| 2026-05-06 06:45 | 37.66734 | -122.48698 | 2238 ft | 229 kts | 297° |
| 2026-05-06 06:46 | 37.67400 | -122.50585 | 2549 ft | 242 kts | 283° |
| 2026-05-06 06:46 | 37.67656 | -122.52700 | 3008 ft | 247 kts | 274° |
| 2026-05-06 06:46 | 37.67785 | -122.54899 | 3456 ft | 255 kts | 273° |
| 2026-05-06 06:46 | 37.67910 | -122.57166 | 3895 ft | 262 kts | 274° |
| 2026-05-06 06:47 | 37.68044 | -122.59477 | 4409 ft | 266 kts | 276° |
| 2026-05-06 06:47 | 37.68184 | -122.61819 | 4933 ft | 270 kts | 276° |
| 2026-05-06 06:47 | 37.68325 | -122.64195 | 5448 ft | 272 kts | 276° |
| 2026-05-06 06:47 | 37.68470 | -122.66581 | 6029 ft | 273 kts | 276° |
| 2026-05-06 06:48 | 37.68615 | -122.68977 | 6616 ft | 275 kts | 276° |
| 2026-05-06 06:48 | 37.68760 | -122.71408 | 7111 ft | 279 kts | 277° |
| 2026-05-06 06:48 | 37.68908 | -122.73872 | 7603 ft | 285 kts | 276° |
| 2026-05-06 06:48 | 37.69058 | -122.76385 | 8124 ft | 289 kts | 276° |
| 2026-05-06 06:49 | 37.69207 | -122.78901 | 8649 ft | 293 kts | 276° |
| 2026-05-06 06:49 | 37.69362 | -122.81518 | 9186 ft | 297 kts | 276° |
| 2026-05-06 06:49 | 37.69515 | -122.84107 | 9707 ft | 302 kts | 276° |
| 2026-05-06 06:49 | 37.69672 | -122.86769 | 10180 ft | 308 kts | 276° |
| 2026-05-06 06:50 | 37.69836 | -122.89556 | 10423 ft | 322 kts | 276° |
| 2026-05-06 06:50 | 37.70005 | -122.92440 | 10672 ft | 335 kts | 276° |
| 2026-05-06 06:50 | 37.70177 | -122.95389 | 10927 ft | 348 kts | 275° |
| 2026-05-06 06:50 | 37.70356 | -122.98491 | 11178 ft | 361 kts | 275° |
| 2026-05-06 06:51 | 37.70543 | -123.01750 | 11425 ft | 373 kts | 275° |
| 2026-05-06 06:51 | 37.70730 | -123.05017 | 11638 ft | 384 kts | 275° |
| 2026-05-06 06:51 | 37.70927 | -123.08475 | 11888 ft | 395 kts | 275° |
| 2026-05-06 06:51 | 37.71125 | -123.11971 | 12175 ft | 402 kts | 275° |
| 2026-05-06 06:52 | 37.71321 | -123.15460 | 12590 ft | 406 kts | 275° |
| 2026-05-06 06:52 | 37.71520 | -123.19026 | 13080 ft | 408 kts | 276° |
| 2026-05-06 06:52 | 37.71720 | -123.22608 | 13536 ft | 411 kts | 276° |
| 2026-05-06 06:52 | 37.71923 | -123.26275 | 13966 ft | 414 kts | 276° |
| 2026-05-06 06:53 | 37.72120 | -123.29843 | 14349 ft | 416 kts | 276° |
| 2026-05-06 06:53 | 37.72320 | -123.33501 | 14731 ft | 418 kts | 276° |
| 2026-05-06 06:53 | 37.72521 | -123.37184 | 15130 ft | 420 kts | 276° |
| 2026-05-06 06:53 | 37.72721 | -123.40876 | 15512 ft | 423 kts | 276° |
| 2026-05-06 06:54 | 37.72922 | -123.44595 | 15906 ft | 425 kts | 276° |
| 2026-05-06 06:54 | 37.73122 | -123.48329 | 16278 ft | 427 kts | 276° |
| 2026-05-06 06:54 | 37.73322 | -123.52086 | 16658 ft | 429 kts | 276° |
| 2026-05-06 06:54 | 37.73522 | -123.55861 | 17043 ft | 431 kts | 276° |
| 2026-05-06 06:55 | 37.73722 | -123.59656 | 17424 ft | 433 kts | 276° |
| 2026-05-06 06:55 | 37.73920 | -123.63457 | 17810 ft | 436 kts | 276° |
| 2026-05-06 06:55 | 37.74120 | -123.67290 | 18184 ft | 438 kts | 276° |
| 2026-05-06 06:55 | 37.74318 | -123.71134 | 18535 ft | 440 kts | 276° |
| 2026-05-06 06:56 | 37.74517 | -123.75006 | 18844 ft | 443 kts | 276° |
| 2026-05-06 06:56 | 37.74715 | -123.78896 | 19178 ft | 445 kts | 276° |
| 2026-05-06 06:56 | 37.74914 | -123.82810 | 19519 ft | 447 kts | 276° |
| 2026-05-06 06:56 | 37.75111 | -123.86735 | 19868 ft | 449 kts | 276° |
| 2026-05-06 06:57 | 37.75308 | -123.90687 | 20230 ft | 451 kts | 276° |
| 2026-05-06 06:57 | 37.75505 | -123.94649 | 20582 ft | 453 kts | 276° |
| 2026-05-06 06:57 | 37.75702 | -123.98629 | 20933 ft | 455 kts | 276° |
| 2026-05-06 06:57 | 37.75897 | -124.02616 | 21297 ft | 457 kts | 276° |
| 2026-05-06 06:58 | 37.76090 | -124.06590 | 21649 ft | 459 kts | 276° |
| 2026-05-06 06:58 | 37.76285 | -124.10629 | 22008 ft | 461 kts | 276° |
| 2026-05-06 06:58 | 37.76482 | -124.14736 | 22373 ft | 464 kts | 276° |
| 2026-05-06 06:58 | 37.76676 | -124.18813 | 22741 ft | 466 kts | 277° |
| 2026-05-06 06:59 | 37.76867 | -124.22858 | 23101 ft | 468 kts | 276° |
| 2026-05-06 06:59 | 37.77060 | -124.26973 | 23494 ft | 470 kts | 276° |
| 2026-05-06 06:59 | 37.77253 | -124.31116 | 23847 ft | 473 kts | 276° |
| 2026-05-06 06:59 | 37.77445 | -124.35275 | 24166 ft | 475 kts | 276° |
| 2026-05-06 07:00 | 37.77636 | -124.39446 | 24487 ft | 477 kts | 276° |
| 2026-05-06 07:00 | 37.77827 | -124.43641 | 24814 ft | 479 kts | 276° |
| 2026-05-06 07:00 | 37.77956 | -124.46486 | 25033 ft | 480 kts | 276° |
| 2026-05-06 07:00 | 37.78145 | -124.50709 | 25371 ft | 482 kts | 276° |
| 2026-05-06 07:01 | 37.78331 | -124.54889 | 25696 ft | 484 kts | 276° |
| 2026-05-06 07:01 | 37.78519 | -124.59150 | 26023 ft | 486 kts | 276° |
| 2026-05-06 07:01 | 37.78706 | -124.63426 | 26350 ft | 488 kts | 276° |
| 2026-05-06 07:01 | 37.78893 | -124.67719 | 26668 ft | 490 kts | 276° |
| 2026-05-06 07:02 | 37.79079 | -124.72038 | 26975 ft | 492 kts | 276° |
| 2026-05-06 07:02 | 37.79264 | -124.76363 | 27290 ft | 494 kts | 276° |
| 2026-05-06 07:02 | 37.79447 | -124.80698 | 27591 ft | 495 kts | 276° |
| 2026-05-06 07:02 | 37.79630 | -124.85060 | 27876 ft | 497 kts | 276° |
| 2026-05-06 07:03 | 37.79812 | -124.89442 | 28146 ft | 499 kts | 276° |
| 2026-05-06 07:03 | 37.79993 | -124.93833 | 28413 ft | 501 kts | 276° |
| 2026-05-06 07:03 | 37.80173 | -124.98238 | 28689 ft | 503 kts | 276° |
| 2026-05-06 07:03 | 37.80353 | -125.02672 | 28929 ft | 505 kts | 276° |
| 2026-05-06 07:04 | 37.80531 | -125.07112 | 29267 ft | 505 kts | 276° |
| 2026-05-06 07:04 | 37.80706 | -125.11536 | 29672 ft | 503 kts | 276° |
| 2026-05-06 07:04 | 37.80879 | -125.15951 | 30052 ft | 502 kts | 276° |
| 2026-05-06 07:04 | 37.81050 | -125.20357 | 30379 ft | 502 kts | 276° |
| 2026-05-06 07:05 | 37.81221 | -125.24770 | 30647 ft | 501 kts | 276° |
| 2026-05-06 07:05 | 37.81389 | -125.29173 | 30935 ft | 501 kts | 275° |
| 2026-05-06 07:05 | 37.81555 | -125.33560 | 31199 ft | 501 kts | 276° |
| 2026-05-06 07:05 | 37.81720 | -125.37957 | 31452 ft | 500 kts | 276° |
| 2026-05-06 07:06 | 37.81883 | -125.42354 | 31702 ft | 500 kts | 275° |
| 2026-05-06 07:06 | 37.82044 | -125.46750 | 31940 ft | 500 kts | 275° |
| 2026-05-06 07:06 | 37.82204 | -125.51145 | 32163 ft | 500 kts | 275° |
| 2026-05-06 07:06 | 37.82362 | -125.55530 | 32390 ft | 500 kts | 275° |
| 2026-05-06 07:07 | 37.82519 | -125.59927 | 32609 ft | 500 kts | 275° |
| 2026-05-06 07:07 | 37.82673 | -125.64306 | 32828 ft | 499 kts | 275° |
| 2026-05-06 07:07 | 37.82826 | -125.68700 | 33047 ft | 499 kts | 275° |
| 2026-05-06 07:07 | 37.82975 | -125.73030 | 33258 ft | 499 kts | 275° |
| 2026-05-06 07:08 | 37.83125 | -125.77413 | 33466 ft | 499 kts | 275° |
| 2026-05-06 07:08 | 37.83288 | -125.81777 | 33684 ft | 497 kts | 277° |
| 2026-05-06 07:08 | 37.83696 | -125.86121 | 33865 ft | 495 kts | 282° |
| 2026-05-06 07:08 | 37.84252 | -125.90416 | 34059 ft | 494 kts | 283° |
| 2026-05-06 07:09 | 37.84866 | -125.94688 | 34177 ft | 495 kts | 284° |
| 2026-05-06 07:09 | 37.86151 | -126.03300 | 34190 ft | 501 kts | 284° |
| 2026-05-06 07:10 | 37.87420 | -126.11973 | 34192 ft | 500 kts | 283° |
| 2026-05-06 07:10 | 37.88656 | -126.20637 | 34192 ft | 500 kts | 283° |
| 2026-05-06 07:11 | 37.89876 | -126.29300 | 34194 ft | 500 kts | 283° |
| 2026-05-06 07:11 | 37.91089 | -126.37965 | 34194 ft | 500 kts | 283° |
| 2026-05-06 07:12 | 37.92297 | -126.46633 | 34195 ft | 500 kts | 283° |
| 2026-05-06 07:12 | 37.93500 | -126.55308 | 34200 ft | 500 kts | 283° |
| 2026-05-06 07:13 | 37.94698 | -126.63995 | 34200 ft | 500 kts | 283° |
| 2026-05-06 07:13 | 37.95887 | -126.72664 | 34196 ft | 500 kts | 283° |
| 2026-05-06 07:14 | 37.97069 | -126.81338 | 34201 ft | 499 kts | 282° |
| 2026-05-06 07:14 | 37.98246 | -126.90019 | 34203 ft | 499 kts | 282° |
| 2026-05-06 07:15 | 37.99416 | -126.98697 | 34209 ft | 499 kts | 282° |
| 2026-05-06 07:15 | 38.00578 | -127.07374 | 34210 ft | 499 kts | 282° |
| 2026-05-06 07:16 | 38.01732 | -127.16032 | 34214 ft | 499 kts | 282° |
| 2026-05-06 07:16 | 38.02881 | -127.24712 | 34212 ft | 498 kts | 282° |
| 2026-05-06 07:17 | 38.04021 | -127.33369 | 34214 ft | 498 kts | 282° |
| 2026-05-06 07:17 | 38.05157 | -127.42041 | 34214 ft | 498 kts | 282° |
| 2026-05-06 07:18 | 38.06285 | -127.50709 | 34208 ft | 498 kts | 282° |
| 2026-05-06 07:18 | 38.07405 | -127.59374 | 34224 ft | 497 kts | 282° |
| 2026-05-06 07:19 | 38.08519 | -127.68040 | 34219 ft | 497 kts | 282° |
| 2026-05-06 07:19 | 38.09625 | -127.76692 | 34224 ft | 497 kts | 281° |
| 2026-05-06 07:20 | 38.10724 | -127.85341 | 34223 ft | 497 kts | 281° |
| 2026-05-06 07:20 | 38.11819 | -127.94015 | 34228 ft | 497 kts | 281° |
| 2026-05-06 07:21 | 38.12907 | -128.02680 | 34231 ft | 497 kts | 281° |
| 2026-05-06 07:21 | 38.13988 | -128.11351 | 34230 ft | 497 kts | 281° |
| 2026-05-06 07:22 | 38.15063 | -128.20025 | 34231 ft | 497 kts | 281° |
| 2026-05-06 07:22 | 38.16131 | -128.28698 | 34236 ft | 496 kts | 281° |
| 2026-05-06 07:23 | 38.17186 | -128.37315 | 34250 ft | 496 kts | 281° |
| 2026-05-06 07:23 | 38.18240 | -128.45979 | 34235 ft | 496 kts | 281° |
| 2026-05-06 07:24 | 38.19288 | -128.54652 | 34241 ft | 496 kts | 281° |
| 2026-05-06 07:24 | 38.20329 | -128.63317 | 34238 ft | 496 kts | 281° |
| 2026-05-06 07:25 | 38.21364 | -128.71996 | 34250 ft | 496 kts | 280° |
| 2026-05-06 07:25 | 38.22390 | -128.80664 | 34254 ft | 496 kts | 280° |
| 2026-05-06 07:26 | 38.23414 | -128.89353 | 34243 ft | 496 kts | 280° |
| 2026-05-06 07:26 | 38.24431 | -128.98034 | 34252 ft | 496 kts | 280° |
| 2026-05-06 07:27 | 38.25440 | -129.06709 | 34252 ft | 496 kts | 280° |
| 2026-05-06 07:27 | 38.26444 | -129.15400 | 34251 ft | 496 kts | 280° |
| 2026-05-06 07:28 | 38.27438 | -129.24072 | 34254 ft | 495 kts | 280° |
| 2026-05-06 07:28 | 38.28919 | -129.37089 | 34253 ft | 495 kts | 279° |
| 2026-05-06 07:29 | 38.29897 | -129.45756 | 34257 ft | 494 kts | 280° |
| 2026-05-06 07:29 | 38.30868 | -129.54416 | 34258 ft | 494 kts | 279° |
| 2026-05-06 07:30 | 38.31831 | -129.63078 | 34259 ft | 494 kts | 280° |
| 2026-05-06 07:30 | 38.32788 | -129.71736 | 34263 ft | 494 kts | 279° |
| 2026-05-06 07:31 | 38.33739 | -129.80403 | 34262 ft | 493 kts | 279° |
| 2026-05-06 07:31 | 38.34681 | -129.89045 | 34267 ft | 493 kts | 279° |
| 2026-05-06 07:32 | 38.35609 | -129.97634 | 34267 ft | 493 kts | 279° |
| 2026-05-06 07:32 | 38.36537 | -130.06275 | 34265 ft | 492 kts | 279° |
| 2026-05-06 07:33 | 38.37460 | -130.14924 | 34267 ft | 493 kts | 278° |
| 2026-05-06 07:33 | 38.38378 | -130.23592 | 34269 ft | 493 kts | 278° |
| 2026-05-06 07:34 | 38.39287 | -130.32248 | 34270 ft | 493 kts | 278° |
| 2026-05-06 07:34 | 38.40191 | -130.40901 | 34272 ft | 493 kts | 278° |
| 2026-05-06 07:35 | 38.41092 | -130.49578 | 34276 ft | 493 kts | 278° |
| 2026-05-06 07:35 | 38.41982 | -130.58239 | 34276 ft | 492 kts | 277° |
| 2026-05-06 07:36 | 38.42866 | -130.66897 | 34279 ft | 492 kts | 278° |
| 2026-05-06 07:36 | 38.43744 | -130.75558 | 34279 ft | 493 kts | 277° |
| 2026-05-06 07:37 | 38.44616 | -130.84223 | 34282 ft | 492 kts | 277° |
| 2026-05-06 07:37 | 38.45478 | -130.92863 | 34284 ft | 491 kts | 277° |
| 2026-05-06 07:38 | 38.46335 | -131.01509 | 34284 ft | 491 kts | 277° |
| 2026-05-06 07:38 | 38.47184 | -131.10147 | 34285 ft | 490 kts | 277° |
| 2026-05-06 07:39 | 38.48025 | -131.18765 | 34286 ft | 489 kts | 277° |
| 2026-05-06 07:39 | 38.48857 | -131.27362 | 34288 ft | 487 kts | 277° |
| 2026-05-06 07:40 | 38.49683 | -131.35960 | 34288 ft | 487 kts | 276° |
| 2026-05-06 07:40 | 38.50500 | -131.44539 | 34290 ft | 486 kts | 276° |
| 2026-05-06 07:41 | 38.51306 | -131.53055 | 34293 ft | 487 kts | 276° |
| 2026-05-06 07:41 | 38.52111 | -131.61638 | 34293 ft | 487 kts | 276° |
| 2026-05-06 07:42 | 38.52915 | -131.70272 | 34297 ft | 485 kts | 276° |
| 2026-05-06 07:42 | 38.53698 | -131.78762 | 34299 ft | 485 kts | 276° |
| 2026-05-06 07:43 | 38.54482 | -131.87330 | 34299 ft | 486 kts | 276° |
| 2026-05-06 07:43 | 38.55261 | -131.95905 | 34299 ft | 485 kts | 275° |
| 2026-05-06 07:44 | 38.56030 | -132.04443 | 34302 ft | 484 kts | 276° |
| 2026-05-06 07:44 | 38.56795 | -132.13013 | 34304 ft | 486 kts | 276° |
| 2026-05-06 07:45 | 38.57554 | -132.21577 | 34303 ft | 485 kts | 276° |
| 2026-05-06 07:45 | 38.58306 | -132.30145 | 34303 ft | 484 kts | 276° |
| 2026-05-06 07:46 | 38.58926 | -132.37271 | 34307 ft | 486 kts | 276° |
| 2026-05-06 07:46 | 38.59788 | -132.47241 | 34308 ft | 485 kts | 276° |
| 2026-05-06 07:47 | 38.60401 | -132.54403 | 34304 ft | 484 kts | 276° |
| 2026-05-06 07:47 | 38.61123 | -132.62910 | 34312 ft | 485 kts | 276° |
| 2026-05-06 07:48 | 38.61846 | -132.71491 | 34315 ft | 485 kts | 277° |
| 2026-05-06 07:48 | 38.62562 | -132.80059 | 34313 ft | 485 kts | 277° |
| 2026-05-06 07:49 | 38.63272 | -132.88644 | 34314 ft | 486 kts | 277° |
| 2026-05-06 07:49 | 38.63976 | -132.97236 | 34316 ft | 486 kts | 277° |
| 2026-05-06 07:50 | 38.64674 | -133.05826 | 34313 ft | 485 kts | 277° |
| 2026-05-06 07:50 | 38.65368 | -133.14432 | 34314 ft | 487 kts | 276° |
| 2026-05-06 07:51 | 38.66054 | -133.23044 | 34320 ft | 486 kts | 277° |
| 2026-05-06 07:51 | 38.66733 | -133.31643 | 34320 ft | 486 kts | 277° |
| 2026-05-06 07:52 | 38.67408 | -133.40267 | 34319 ft | 487 kts | 276° |
| 2026-05-06 07:52 | 38.68076 | -133.48881 | 34324 ft | 486 kts | 276° |
| 2026-05-06 07:53 | 38.68733 | -133.57450 | 34320 ft | 483 kts | 276° |
| 2026-05-06 07:53 | 38.69384 | -133.66022 | 34322 ft | 485 kts | 276° |
| 2026-05-06 07:54 | 38.70029 | -133.74597 | 34322 ft | 483 kts | 276° |
| 2026-05-06 07:54 | 38.70667 | -133.83159 | 34327 ft | 483 kts | 276° |
| 2026-05-06 07:55 | 38.71299 | -133.91724 | 34328 ft | 482 kts | 275° |
| 2026-05-06 07:55 | 38.71923 | -134.00271 | 34330 ft | 481 kts | 275° |
| 2026-05-06 07:56 | 38.72535 | -134.08751 | 34330 ft | 482 kts | 276° |
| 2026-05-06 07:56 | 38.73148 | -134.17298 | 34330 ft | 482 kts | 276° |
| 2026-05-06 07:57 | 38.73753 | -134.25857 | 34334 ft | 482 kts | 276° |
| 2026-05-06 07:57 | 38.74353 | -134.34415 | 34333 ft | 483 kts | 276° |
| 2026-05-06 07:58 | 38.74948 | -134.42990 | 34333 ft | 483 kts | 276° |
| 2026-05-06 07:58 | 38.75536 | -134.51564 | 34323 ft | 483 kts | 276° |
| 2026-05-06 07:59 | 38.76116 | -134.60126 | 34333 ft | 483 kts | 276° |
| 2026-05-06 07:59 | 38.76692 | -134.68702 | 34339 ft | 483 kts | 277° |
| 2026-05-06 08:00 | 38.77262 | -134.77287 | 34341 ft | 484 kts | 277° |
| 2026-05-06 08:00 | 38.77825 | -134.85868 | 34344 ft | 483 kts | 277° |
| 2026-05-06 08:01 | 38.78382 | -134.94447 | 34341 ft | 483 kts | 277° |
| 2026-05-06 08:01 | 38.78933 | -135.03035 | 34342 ft | 484 kts | 276° |
| 2026-05-06 08:02 | 38.79476 | -135.11587 | 34344 ft | 484 kts | 276° |
| 2026-05-06 08:02 | 38.80015 | -135.20194 | 34344 ft | 485 kts | 276° |
| 2026-05-06 08:03 | 38.80548 | -135.28812 | 34344 ft | 485 kts | 276° |
| 2026-05-06 08:03 | 38.81075 | -135.37428 | 34344 ft | 485 kts | 276° |
| 2026-05-06 08:04 | 38.81595 | -135.46039 | 34344 ft | 485 kts | 276° |
| 2026-05-06 08:04 | 38.82110 | -135.54667 | 34343 ft | 485 kts | 276° |
| 2026-05-06 08:05 | 38.82618 | -135.63281 | 34346 ft | 485 kts | 276° |
| 2026-05-06 08:05 | 38.83120 | -135.71909 | 34346 ft | 485 kts | 276° |
| 2026-05-06 08:06 | 38.83616 | -135.80526 | 34344 ft | 485 kts | 276° |
| 2026-05-06 08:06 | 38.84101 | -135.89078 | 34354 ft | 484 kts | 276° |
| 2026-05-06 08:07 | 38.84586 | -135.97759 | 34345 ft | 484 kts | 276° |
| 2026-05-06 08:07 | 38.85060 | -136.06321 | 34345 ft | 483 kts | 275° |
| 2026-05-06 08:08 | 38.85527 | -136.14907 | 34351 ft | 482 kts | 275° |
| 2026-05-06 08:08 | 38.85988 | -136.23478 | 34354 ft | 482 kts | 275° |
| 2026-05-06 08:09 | 38.86443 | -136.32049 | 34354 ft | 481 kts | 275° |
| 2026-05-06 08:09 | 38.86891 | -136.40629 | 34354 ft | 481 kts | 275° |
| 2026-05-06 08:10 | 38.87333 | -136.49195 | 34354 ft | 481 kts | 275° |
| 2026-05-06 08:10 | 38.87769 | -136.57767 | 34357 ft | 481 kts | 274° |
| 2026-05-06 08:11 | 38.88197 | -136.66329 | 34357 ft | 481 kts | 274° |
| 2026-05-06 08:11 | 38.88619 | -136.74893 | 34357 ft | 481 kts | 274° |
| 2026-05-06 08:12 | 38.89035 | -136.83451 | 34354 ft | 481 kts | 274° |
| 2026-05-06 08:12 | 38.89445 | -136.92015 | 34362 ft | 481 kts | 274° |
| 2026-05-06 08:13 | 38.89848 | -137.00571 | 34354 ft | 480 kts | 274° |
| 2026-05-06 08:13 | 38.90244 | -137.09111 | 34354 ft | 479 kts | 273° |
| 2026-05-06 08:14 | 38.90633 | -137.17633 | 34354 ft | 478 kts | 273° |
| 2026-05-06 08:14 | 38.91016 | -137.26155 | 34354 ft | 478 kts | 273° |
| 2026-05-06 08:15 | 38.91393 | -137.34683 | 34355 ft | 478 kts | 273° |
| 2026-05-06 08:15 | 38.91761 | -137.43158 | 34354 ft | 478 kts | 273° |
| 2026-05-06 08:16 | 38.92126 | -137.51681 | 34354 ft | 479 kts | 273° |
| 2026-05-06 08:16 | 38.92485 | -137.60228 | 34354 ft | 479 kts | 273° |
| 2026-05-06 08:17 | 38.92837 | -137.68769 | 34354 ft | 479 kts | 272° |
| 2026-05-06 08:17 | 38.93183 | -137.77312 | 34355 ft | 479 kts | 272° |
| 2026-05-06 08:18 | 38.93524 | -137.85872 | 34354 ft | 480 kts | 272° |
| 2026-05-06 08:18 | 38.93858 | -137.94429 | 34355 ft | 480 kts | 272° |
| 2026-05-06 08:19 | 38.94186 | -138.02984 | 34355 ft | 479 kts | 272° |
| 2026-05-06 08:19 | 38.94506 | -138.11486 | 34353 ft | 480 kts | 272° |
| 2026-05-06 08:20 | 38.94822 | -138.20058 | 34354 ft | 481 kts | 272° |
| 2026-05-06 08:20 | 38.95132 | -138.28638 | 34354 ft | 481 kts | 272° |
| 2026-05-06 08:21 | 38.95435 | -138.37212 | 34354 ft | 481 kts | 272° |
| 2026-05-06 08:21 | 38.95733 | -138.45805 | 34349 ft | 481 kts | 272° |
| 2026-05-06 08:22 | 38.96024 | -138.54393 | 34349 ft | 481 kts | 272° |
| 2026-05-06 08:22 | 38.96310 | -138.62987 | 34349 ft | 481 kts | 272° |
| 2026-05-06 08:23 | 38.96589 | -138.71580 | 34349 ft | 482 kts | 271° |
| 2026-05-06 08:23 | 38.96861 | -138.80180 | 34349 ft | 482 kts | 271° |
| 2026-05-06 08:24 | 38.97126 | -138.88729 | 34350 ft | 482 kts | 271° |
| 2026-05-06 08:24 | 38.97387 | -138.97330 | 34349 ft | 482 kts | 271° |
| 2026-05-06 08:25 | 38.97641 | -139.05954 | 34347 ft | 483 kts | 271° |
| 2026-05-06 08:25 | 38.97889 | -139.14577 | 34349 ft | 483 kts | 271° |
| 2026-05-06 08:26 | 38.98131 | -139.23198 | 34346 ft | 483 kts | 271° |
| 2026-05-06 08:26 | 38.98367 | -139.31829 | 34346 ft | 483 kts | 271° |
| 2026-05-06 08:27 | 38.98596 | -139.40453 | 34346 ft | 483 kts | 271° |
| 2026-05-06 08:27 | 38.98819 | -139.49092 | 34344 ft | 483 kts | 271° |
| 2026-05-06 08:28 | 38.99036 | -139.57722 | 34344 ft | 483 kts | 271° |
| 2026-05-06 08:28 | 38.99246 | -139.66356 | 34342 ft | 483 kts | 270° |
| 2026-05-06 08:29 | 38.99449 | -139.74983 | 34344 ft | 483 kts | 270° |
| 2026-05-06 08:29 | 38.99647 | -139.83609 | 34341 ft | 483 kts | 270° |
| 2026-05-06 08:30 | 38.99837 | -139.92186 | 34341 ft | 483 kts | 270° |
| 2026-05-06 08:30 | 39.00218 | -140.00795 | 34340 ft | 484 kts | 277° |
| 2026-05-06 08:31 | 39.01322 | -140.09330 | 34333 ft | 484 kts | 278° |
| 2026-05-06 08:31 | 39.02546 | -140.17842 | 34332 ft | 484 kts | 278° |
| 2026-05-06 08:32 | 39.03780 | -140.26348 | 34333 ft | 484 kts | 278° |
| 2026-05-06 08:32 | 39.04997 | -140.34860 | 34347 ft | 484 kts | 278° |
| 2026-05-06 08:33 | 39.06199 | -140.43358 | 34330 ft | 482 kts | 278° |
| 2026-05-06 08:33 | 39.07390 | -140.51846 | 34330 ft | 482 kts | 278° |
| 2026-05-06 08:34 | 39.09164 | -140.64580 | 34325 ft | 482 kts | 278° |
| 2026-05-06 08:35 | 39.10340 | -140.73068 | 34316 ft | 481 kts | 277° |
| 2026-05-06 08:35 | 39.11500 | -140.81494 | 34318 ft | 481 kts | 277° |
| 2026-05-06 08:36 | 39.12659 | -140.89956 | 34330 ft | 480 kts | 277° |
| 2026-05-06 08:36 | 39.13813 | -140.98431 | 34323 ft | 480 kts | 277° |
| 2026-05-06 08:37 | 39.14961 | -141.06909 | 34319 ft | 481 kts | 277° |
| 2026-05-06 08:37 | 39.16103 | -141.15391 | 34316 ft | 481 kts | 277° |
| 2026-05-06 08:38 | 39.17240 | -141.23884 | 34316 ft | 481 kts | 277° |
| 2026-05-06 08:38 | 39.18364 | -141.32330 | 34309 ft | 481 kts | 277° |
| 2026-05-06 08:39 | 39.19498 | -141.40893 | 34307 ft | 482 kts | 277° |
| 2026-05-06 08:39 | 39.20431 | -141.47987 | 34307 ft | 483 kts | 277° |
| 2026-05-06 08:40 | 39.21549 | -141.56525 | 34303 ft | 483 kts | 277° |
| 2026-05-06 08:40 | 39.22661 | -141.65064 | 34299 ft | 483 kts | 277° |
| 2026-05-06 08:41 | 39.23768 | -141.73619 | 34297 ft | 484 kts | 276° |
| 2026-05-06 08:41 | 39.24868 | -141.82178 | 34294 ft | 483 kts | 276° |
| 2026-05-06 08:42 | 39.25955 | -141.90680 | 34292 ft | 483 kts | 276° |
| 2026-05-06 08:42 | 39.27050 | -141.99299 | 34299 ft | 483 kts | 276° |
| 2026-05-06 08:43 | 39.28132 | -142.07860 | 34281 ft | 483 kts | 276° |
| 2026-05-06 08:43 | 39.29197 | -142.16352 | 34282 ft | 483 kts | 276° |
| 2026-05-06 08:44 | 39.30266 | -142.24916 | 34277 ft | 483 kts | 276° |
| 2026-05-06 08:44 | 39.31329 | -142.33490 | 34283 ft | 483 kts | 276° |
| 2026-05-06 08:45 | 39.32382 | -142.42038 | 34273 ft | 482 kts | 275° |
| 2026-05-06 08:45 | 39.33431 | -142.50603 | 34265 ft | 482 kts | 275° |
| 2026-05-06 08:46 | 39.34472 | -142.59159 | 34263 ft | 482 kts | 275° |
| 2026-05-06 08:46 | 39.35507 | -142.67726 | 34265 ft | 482 kts | 275° |
| 2026-05-06 08:47 | 39.36535 | -142.76280 | 34259 ft | 482 kts | 275° |
| 2026-05-06 08:47 | 39.37558 | -142.84854 | 34257 ft | 482 kts | 275° |
| 2026-05-06 08:48 | 39.38575 | -142.93425 | 34254 ft | 482 kts | 275° |
| 2026-05-06 08:48 | 39.39586 | -143.02000 | 34253 ft | 482 kts | 275° |
| 2026-05-06 08:49 | 39.40588 | -143.10560 | 34250 ft | 482 kts | 275° |
| 2026-05-06 08:49 | 39.41585 | -143.19131 | 34245 ft | 481 kts | 275° |
| 2026-05-06 08:50 | 39.42566 | -143.27626 | 34239 ft | 481 kts | 275° |
| 2026-05-06 08:50 | 39.43549 | -143.36188 | 34240 ft | 480 kts | 274° |
| 2026-05-06 08:51 | 39.44522 | -143.44726 | 34235 ft | 480 kts | 274° |
| 2026-05-06 08:51 | 39.45490 | -143.53274 | 34228 ft | 480 kts | 274° |
| 2026-05-06 08:52 | 39.46450 | -143.61807 | 34227 ft | 480 kts | 274° |
| 2026-05-06 08:52 | 39.47405 | -143.70351 | 34224 ft | 479 kts | 274° |
| 2026-05-06 08:53 | 39.48352 | -143.78888 | 34218 ft | 479 kts | 273° |
| 2026-05-06 08:53 | 39.49293 | -143.87427 | 34223 ft | 479 kts | 273° |
| 2026-05-06 08:54 | 39.50227 | -143.95959 | 34212 ft | 478 kts | 273° |
| 2026-05-06 08:54 | 39.51153 | -144.04471 | 34205 ft | 476 kts | 272° |
| 2026-05-06 08:55 | 39.52062 | -144.12894 | 34206 ft | 475 kts | 272° |
| 2026-05-06 08:55 | 39.52968 | -144.21364 | 34204 ft | 475 kts | 272° |
| 2026-05-06 08:56 | 39.53870 | -144.29843 | 34207 ft | 475 kts | 272° |
| 2026-05-06 08:56 | 39.54765 | -144.38306 | 34196 ft | 472 kts | 272° |
| 2026-05-06 08:57 | 39.55649 | -144.46721 | 34190 ft | 471 kts | 272° |
| 2026-05-06 08:57 | 39.56525 | -144.55141 | 34191 ft | 471 kts | 272° |
| 2026-05-06 08:58 | 39.57396 | -144.63567 | 34195 ft | 471 kts | 272° |
| 2026-05-06 08:58 | 39.58261 | -144.71986 | 34184 ft | 471 kts | 271° |
| 2026-05-06 08:59 | 39.59117 | -144.80395 | 34180 ft | 471 kts | 271° |
| 2026-05-06 08:59 | 39.59968 | -144.88812 | 34172 ft | 471 kts | 271° |
| 2026-05-06 09:00 | 39.60813 | -144.97221 | 34175 ft | 470 kts | 271° |
| 2026-05-06 09:00 | 39.61653 | -145.05639 | 34171 ft | 470 kts | 271° |
| 2026-05-06 09:01 | 39.62479 | -145.13990 | 34152 ft | 470 kts | 271° |
| 2026-05-06 09:01 | 39.63303 | -145.22389 | 34154 ft | 470 kts | 271° |
| 2026-05-06 09:02 | 39.64122 | -145.30798 | 34151 ft | 470 kts | 271° |
| 2026-05-06 09:02 | 39.64935 | -145.39195 | 34151 ft | 468 kts | 271° |
| 2026-05-06 09:03 | 39.65741 | -145.47581 | 34144 ft | 468 kts | 270° |
| 2026-05-06 09:03 | 39.66537 | -145.55956 | 34138 ft | 468 kts | 270° |
| 2026-05-06 09:04 | 39.67324 | -145.64288 | 34134 ft | 468 kts | 270° |
| 2026-05-06 09:04 | 39.68110 | -145.72676 | 34125 ft | 469 kts | 270° |
| 2026-05-06 09:05 | 39.68892 | -145.81092 | 34122 ft | 470 kts | 270° |
| 2026-05-06 09:05 | 39.69669 | -145.89509 | 34118 ft | 470 kts | 270° |
| 2026-05-06 09:06 | 39.70441 | -145.97928 | 34111 ft | 470 kts | 270° |
| 2026-05-06 09:06 | 39.71206 | -146.06356 | 34111 ft | 470 kts | 270° |
| 2026-05-06 09:07 | 39.71964 | -146.14779 | 34105 ft | 470 kts | 269° |
| 2026-05-06 09:07 | 39.72717 | -146.23213 | 34099 ft | 471 kts | 269° |
| 2026-05-06 09:08 | 39.73466 | -146.31680 | 34118 ft | 472 kts | 269° |
| 2026-05-06 09:08 | 39.74211 | -146.40175 | 34094 ft | 474 kts | 269° |
| 2026-05-06 09:09 | 39.74953 | -146.48691 | 34090 ft | 474 kts | 269° |
| 2026-05-06 09:09 | 39.75689 | -146.57206 | 34084 ft | 474 kts | 269° |
| 2026-05-06 09:10 | 39.76418 | -146.65733 | 34079 ft | 475 kts | 268° |
| 2026-05-06 09:10 | 39.77136 | -146.74199 | 34070 ft | 475 kts | 268° |
| 2026-05-06 09:11 | 39.77854 | -146.82730 | 34070 ft | 475 kts | 268° |
| 2026-05-06 09:11 | 39.78566 | -146.91264 | 34067 ft | 474 kts | 268° |
| 2026-05-06 09:12 | 39.79269 | -146.99776 | 34045 ft | 473 kts | 268° |
| 2026-05-06 09:12 | 39.79965 | -147.08292 | 34061 ft | 473 kts | 268° |
| 2026-05-06 09:13 | 39.80656 | -147.16812 | 34054 ft | 473 kts | 268° |
| 2026-05-06 09:13 | 39.81340 | -147.25331 | 34051 ft | 474 kts | 268° |
| 2026-05-06 09:14 | 39.82018 | -147.33855 | 34047 ft | 474 kts | 267° |
| 2026-05-06 09:14 | 39.82691 | -147.42384 | 34051 ft | 474 kts | 267° |
| 2026-05-06 09:15 | 39.83358 | -147.50936 | 34032 ft | 475 kts | 267° |
| 2026-05-06 09:15 | 39.84018 | -147.59474 | 34039 ft | 475 kts | 267° |
| 2026-05-06 09:16 | 39.84673 | -147.68012 | 34039 ft | 475 kts | 266° |
| 2026-05-06 09:16 | 39.85317 | -147.76517 | 34033 ft | 475 kts | 266° |
| 2026-05-06 09:17 | 39.85960 | -147.85084 | 34030 ft | 475 kts | 266° |
| 2026-05-06 09:17 | 39.86597 | -147.93641 | 34060 ft | 476 kts | 266° |
| 2026-05-06 09:18 | 39.87228 | -148.02221 | 34025 ft | 476 kts | 266° |
| 2026-05-06 09:18 | 39.87852 | -148.10793 | 34028 ft | 476 kts | 266° |
| 2026-05-06 09:19 | 39.88472 | -148.19379 | 34030 ft | 476 kts | 266° |
| 2026-05-06 09:19 | 39.89086 | -148.27987 | 34026 ft | 477 kts | 265° |
| 2026-05-06 09:20 | 39.89693 | -148.36587 | 34024 ft | 478 kts | 265° |
| 2026-05-06 09:20 | 39.90295 | -148.45204 | 34023 ft | 477 kts | 265° |
| 2026-05-06 09:21 | 39.90891 | -148.53823 | 34026 ft | 479 kts | 265° |
| 2026-05-06 09:21 | 39.91480 | -148.62473 | 34017 ft | 480 kts | 265° |
| 2026-05-06 09:22 | 39.92066 | -148.71120 | 34023 ft | 480 kts | 265° |
| 2026-05-06 09:22 | 39.92645 | -148.79783 | 34023 ft | 480 kts | 265° |
| 2026-05-06 09:23 | 39.93217 | -148.88437 | 34023 ft | 480 kts | 265° |
| 2026-05-06 09:23 | 39.93783 | -148.97097 | 34023 ft | 479 kts | 265° |
| 2026-05-06 09:24 | 39.94342 | -149.05746 | 34023 ft | 479 kts | 265° |
| 2026-05-06 09:24 | 39.94891 | -149.14363 | 34016 ft | 480 kts | 264° |
| 2026-05-06 09:25 | 39.95441 | -149.23090 | 34020 ft | 480 kts | 264° |
| 2026-05-06 09:25 | 39.95979 | -149.31709 | 34014 ft | 480 kts | 264° |
| 2026-05-06 09:26 | 39.96513 | -149.40383 | 34017 ft | 480 kts | 264° |
| 2026-05-06 09:26 | 39.97041 | -149.49069 | 34016 ft | 480 kts | 264° |
| 2026-05-06 09:27 | 39.97562 | -149.57727 | 34018 ft | 479 kts | 264° |
| 2026-05-06 09:27 | 39.98075 | -149.66389 | 34020 ft | 479 kts | 264° |
| 2026-05-06 09:28 | 39.98581 | -149.75043 | 34021 ft | 479 kts | 264° |
| 2026-05-06 09:28 | 39.99077 | -149.83638 | 34015 ft | 479 kts | 264° |
| 2026-05-06 09:29 | 39.99570 | -149.92271 | 34024 ft | 479 kts | 264° |
| 2026-05-06 09:29 | 40.00060 | -150.00924 | 34428 ft | 474 kts | 264° |
| 2026-05-06 09:29 | 40.00280 | -150.05197 | 34733 ft | 470 kts | 263° |
| 2026-05-06 09:30 | 40.00463 | -150.09436 | 34950 ft | 468 kts | 263° |
| 2026-05-06 09:30 | 40.00628 | -150.13667 | 35128 ft | 467 kts | 262° |
| 2026-05-06 09:30 | 40.00789 | -150.17898 | 35365 ft | 466 kts | 263° |
| 2026-05-06 09:30 | 40.00949 | -150.22121 | 35469 ft | 467 kts | 263° |
| 2026-05-06 09:31 | 40.01114 | -150.26361 | 35600 ft | 468 kts | 263° |
| 2026-05-06 09:31 | 40.01281 | -150.30589 | 35783 ft | 466 kts | 263° |
| 2026-05-06 09:31 | 40.01394 | -150.33380 | 35919 ft | 465 kts | 263° |
| 2026-05-06 09:32 | 40.01728 | -150.41835 | 36004 ft | 469 kts | 263° |
| 2026-05-06 09:32 | 40.02060 | -150.50383 | 36001 ft | 472 kts | 263° |
| 2026-05-06 09:33 | 40.02392 | -150.58952 | 35998 ft | 472 kts | 263° |
| 2026-05-06 09:33 | 40.02716 | -150.67509 | 36000 ft | 472 kts | 263° |
| 2026-05-06 09:34 | 40.03032 | -150.76062 | 36034 ft | 472 kts | 263° |
| 2026-05-06 09:34 | 40.03341 | -150.84625 | 35993 ft | 473 kts | 263° |
| 2026-05-06 09:35 | 40.03642 | -150.93137 | 35988 ft | 473 kts | 263° |
| 2026-05-06 09:35 | 40.03940 | -151.01724 | 35985 ft | 473 kts | 263° |
| 2026-05-06 09:36 | 40.04231 | -151.10298 | 35989 ft | 473 kts | 264° |
| 2026-05-06 09:36 | 40.04516 | -151.18865 | 35982 ft | 472 kts | 264° |
| 2026-05-06 09:37 | 40.04794 | -151.27429 | 35976 ft | 472 kts | 264° |
| 2026-05-06 09:37 | 40.05065 | -151.35991 | 35989 ft | 472 kts | 264° |
| 2026-05-06 09:38 | 40.05329 | -151.44573 | 35966 ft | 474 kts | 264° |
| 2026-05-06 09:38 | 40.05589 | -151.53165 | 35968 ft | 474 kts | 264° |
| 2026-05-06 09:39 | 40.05844 | -151.61772 | 35964 ft | 474 kts | 264° |
| 2026-05-06 09:39 | 40.06091 | -151.70359 | 35958 ft | 474 kts | 264° |
| 2026-05-06 09:40 | 40.06331 | -151.78955 | 35953 ft | 474 kts | 264° |
| 2026-05-06 09:40 | 40.06680 | -151.91839 | 35955 ft | 473 kts | 264° |
| 2026-05-06 09:41 | 40.06904 | -152.00367 | 35952 ft | 472 kts | 264° |
| 2026-05-06 09:41 | 40.07121 | -152.08928 | 35944 ft | 472 kts | 264° |
| 2026-05-06 09:42 | 40.07332 | -152.17489 | 35941 ft | 472 kts | 264° |
| 2026-05-06 09:42 | 40.07537 | -152.26047 | 35948 ft | 472 kts | 264° |
| 2026-05-06 09:43 | 40.07735 | -152.34614 | 35935 ft | 472 kts | 264° |
| 2026-05-06 09:43 | 40.07928 | -152.43179 | 35927 ft | 472 kts | 264° |
| 2026-05-06 09:44 | 40.08114 | -152.51743 | 35932 ft | 472 kts | 264° |
| 2026-05-06 09:44 | 40.08293 | -152.60316 | 35921 ft | 473 kts | 264° |
| 2026-05-06 09:45 | 40.08466 | -152.68858 | 35919 ft | 473 kts | 264° |
| 2026-05-06 09:45 | 40.08634 | -152.77442 | 35909 ft | 473 kts | 264° |
| 2026-05-06 09:46 | 40.08796 | -152.86018 | 35914 ft | 473 kts | 264° |
| 2026-05-06 09:46 | 40.08950 | -152.94628 | 35905 ft | 475 kts | 264° |
| 2026-05-06 09:47 | 40.09099 | -153.03258 | 35898 ft | 475 kts | 264° |
| 2026-05-06 09:47 | 40.09243 | -153.11880 | 35896 ft | 475 kts | 264° |
| 2026-05-06 09:48 | 40.09379 | -153.20508 | 35895 ft | 477 kts | 264° |
| 2026-05-06 09:48 | 40.09509 | -153.29183 | 35889 ft | 478 kts | 264° |
| 2026-05-06 09:49 | 40.09634 | -153.37856 | 35890 ft | 477 kts | 264° |
| 2026-05-06 09:49 | 40.09751 | -153.46525 | 35896 ft | 478 kts | 265° |
| 2026-05-06 09:50 | 40.09862 | -153.55210 | 35881 ft | 478 kts | 264° |
| 2026-05-06 09:50 | 40.09968 | -153.63898 | 35875 ft | 479 kts | 264° |
| 2026-05-06 09:51 | 40.10067 | -153.72596 | 35876 ft | 478 kts | 264° |
| 2026-05-06 09:51 | 40.10159 | -153.81286 | 35860 ft | 480 kts | 265° |
| 2026-05-06 09:52 | 40.10244 | -153.89963 | 35854 ft | 481 kts | 265° |
| 2026-05-06 09:52 | 40.10324 | -153.98696 | 35855 ft | 480 kts | 265° |
| 2026-05-06 09:53 | 40.10396 | -154.07420 | 35859 ft | 481 kts | 265° |
| 2026-05-06 09:53 | 40.10461 | -154.16165 | 35845 ft | 482 kts | 265° |
| 2026-05-06 09:54 | 40.10521 | -154.24914 | 35837 ft | 482 kts | 265° |
| 2026-05-06 09:54 | 40.10574 | -154.33674 | 35837 ft | 482 kts | 265° |
| 2026-05-06 09:55 | 40.10621 | -154.42435 | 35832 ft | 483 kts | 265° |
| 2026-05-06 09:55 | 40.10662 | -154.51201 | 35823 ft | 483 kts | 265° |
| 2026-05-06 09:56 | 40.10695 | -154.59978 | 35822 ft | 483 kts | 265° |
| 2026-05-06 09:56 | 40.10722 | -154.68734 | 35819 ft | 483 kts | 265° |
| 2026-05-06 09:57 | 40.10742 | -154.77450 | 35812 ft | 482 kts | 265° |
| 2026-05-06 09:57 | 40.10756 | -154.86206 | 35810 ft | 482 kts | 265° |
| 2026-05-06 09:58 | 40.10763 | -154.94979 | 35810 ft | 482 kts | 265° |
| 2026-05-06 09:58 | 40.10763 | -155.03735 | 35802 ft | 484 kts | 266° |
| 2026-05-06 09:59 | 40.10756 | -155.12548 | 35796 ft | 484 kts | 265° |
| 2026-05-06 09:59 | 40.10744 | -155.21342 | 35793 ft | 484 kts | 265° |
| 2026-05-06 10:00 | 40.10725 | -155.30072 | 35806 ft | 484 kts | 265° |
| 2026-05-06 10:00 | 40.10699 | -155.38895 | 35783 ft | 485 kts | 266° |
| 2026-05-06 10:01 | 40.10666 | -155.47713 | 35782 ft | 486 kts | 266° |
| 2026-05-06 10:01 | 40.10627 | -155.56529 | 35771 ft | 486 kts | 266° |
| 2026-05-06 10:02 | 40.10580 | -155.65363 | 35769 ft | 486 kts | 266° |
| 2026-05-06 10:02 | 40.10526 | -155.74203 | 35756 ft | 487 kts | 266° |
| 2026-05-06 10:03 | 40.10467 | -155.83044 | 35763 ft | 487 kts | 266° |
| 2026-05-06 10:03 | 40.10401 | -155.91891 | 35752 ft | 487 kts | 266° |
| 2026-05-06 10:04 | 40.10328 | -156.00750 | 35752 ft | 488 kts | 266° |
| 2026-05-06 10:04 | 40.10248 | -156.09554 | 35750 ft | 488 kts | 266° |
| 2026-05-06 10:05 | 40.10160 | -156.18490 | 35744 ft | 488 kts | 266° |
| 2026-05-06 10:05 | 40.10066 | -156.27295 | 35748 ft | 489 kts | 267° |
| 2026-05-06 10:06 | 40.09965 | -156.36170 | 35741 ft | 489 kts | 267° |
| 2026-05-06 10:06 | 40.09858 | -156.45072 | 35743 ft | 490 kts | 267° |
| 2026-05-06 10:07 | 40.09745 | -156.53954 | 35737 ft | 490 kts | 267° |
| 2026-05-06 10:07 | 40.09623 | -156.62853 | 35737 ft | 490 kts | 267° |
| 2026-05-06 10:08 | 40.09495 | -156.71747 | 35731 ft | 490 kts | 267° |
| 2026-05-06 10:08 | 40.09360 | -156.80643 | 35731 ft | 490 kts | 267° |
| 2026-05-06 10:09 | 40.09219 | -156.89539 | 35733 ft | 490 kts | 267° |
| 2026-05-06 10:09 | 40.09070 | -156.98401 | 35727 ft | 490 kts | 268° |
| 2026-05-06 10:10 | 40.08916 | -157.07293 | 35725 ft | 490 kts | 268° |
| 2026-05-06 10:10 | 40.08754 | -157.16196 | 35728 ft | 490 kts | 268° |
| 2026-05-06 10:11 | 40.08583 | -157.25150 | 35730 ft | 491 kts | 268° |
| 2026-05-06 10:11 | 40.08409 | -157.34006 | 35717 ft | 491 kts | 268° |
| 2026-05-06 10:12 | 40.08226 | -157.42917 | 35718 ft | 491 kts | 268° |
| 2026-05-06 10:12 | 40.08036 | -157.51838 | 35717 ft | 491 kts | 268° |
| 2026-05-06 10:13 | 40.07840 | -157.60751 | 35720 ft | 491 kts | 268° |
| 2026-05-06 10:13 | 40.07636 | -157.69676 | 35716 ft | 492 kts | 268° |
| 2026-05-06 10:14 | 40.07426 | -157.78586 | 35718 ft | 491 kts | 268° |
| 2026-05-06 10:14 | 40.07208 | -157.87511 | 35718 ft | 492 kts | 268° |
| 2026-05-06 10:15 | 40.06984 | -157.96422 | 35711 ft | 491 kts | 268° |
| 2026-05-06 10:15 | 40.06753 | -158.05351 | 35711 ft | 491 kts | 268° |
| 2026-05-06 10:16 | 40.06516 | -158.14258 | 35710 ft | 491 kts | 268° |
| 2026-05-06 10:16 | 40.06271 | -158.23166 | 35719 ft | 491 kts | 268° |
| 2026-05-06 10:17 | 40.06020 | -158.32070 | 35709 ft | 491 kts | 268° |
| 2026-05-06 10:17 | 40.05762 | -158.40974 | 35706 ft | 491 kts | 268° |
| 2026-05-06 10:18 | 40.05499 | -158.49820 | 35704 ft | 491 kts | 268° |
| 2026-05-06 10:18 | 40.05226 | -158.58778 | 35703 ft | 491 kts | 268° |
| 2026-05-06 10:19 | 40.04949 | -158.67623 | 35712 ft | 492 kts | 268° |
| 2026-05-06 10:19 | 40.04664 | -158.76544 | 35709 ft | 492 kts | 268° |
| 2026-05-06 10:20 | 40.04371 | -158.85457 | 35702 ft | 492 kts | 268° |
| 2026-05-06 10:20 | 40.04071 | -158.94378 | 35705 ft | 491 kts | 268° |
| 2026-05-06 10:21 | 40.03765 | -159.03289 | 35710 ft | 491 kts | 268° |
| 2026-05-06 10:21 | 40.03453 | -159.12184 | 35710 ft | 491 kts | 268° |
| 2026-05-06 10:22 | 40.03134 | -159.21073 | 35700 ft | 491 kts | 269° |
| 2026-05-06 10:22 | 40.02860 | -159.28527 | 35704 ft | 490 kts | 269° |
| 2026-05-06 10:23 | 40.02532 | -159.37344 | 35701 ft | 490 kts | 269° |
| 2026-05-06 10:23 | 40.02195 | -159.46234 | 35699 ft | 490 kts | 269° |
| 2026-05-06 10:24 | 40.01849 | -159.55119 | 35694 ft | 490 kts | 269° |
| 2026-05-06 10:24 | 40.01497 | -159.64005 | 35700 ft | 490 kts | 269° |
| 2026-05-06 10:25 | 40.01140 | -159.72883 | 35699 ft | 490 kts | 269° |
| 2026-05-06 10:25 | 40.00775 | -159.81759 | 35698 ft | 490 kts | 269° |
| 2026-05-06 10:26 | 40.00402 | -159.90650 | 35694 ft | 490 kts | 270° |
| 2026-05-06 10:26 | 39.99471 | -159.99471 | 35701 ft | 496 kts | 257° |
| 2026-05-06 10:27 | 39.96770 | -160.07810 | 35700 ft | 502 kts | 246° |
| 2026-05-06 10:27 | 39.93394 | -160.15793 | 35698 ft | 504 kts | 244° |
| 2026-05-06 10:28 | 39.89918 | -160.23678 | 35699 ft | 505 kts | 244° |
| 2026-05-06 10:28 | 39.86447 | -160.31630 | 35700 ft | 506 kts | 245° |
| 2026-05-06 10:29 | 39.82994 | -160.39615 | 35699 ft | 505 kts | 245° |
| 2026-05-06 10:29 | 39.79555 | -160.47574 | 35699 ft | 505 kts | 245° |
| 2026-05-06 10:30 | 39.76107 | -160.55534 | 35687 ft | 505 kts | 245° |
| 2026-05-06 10:30 | 39.72651 | -160.63484 | 35705 ft | 506 kts | 246° |
| 2026-05-06 10:31 | 39.69191 | -160.71430 | 35701 ft | 506 kts | 246° |
| 2026-05-06 10:31 | 39.65727 | -160.79360 | 35705 ft | 505 kts | 246° |
| 2026-05-06 10:32 | 39.62263 | -160.87269 | 35706 ft | 504 kts | 246° |
| 2026-05-06 10:32 | 39.58787 | -160.95184 | 35708 ft | 506 kts | 247° |
| 2026-05-06 10:33 | 39.55300 | -161.03108 | 35714 ft | 506 kts | 247° |
| 2026-05-06 10:33 | 39.51826 | -161.10980 | 35713 ft | 506 kts | 247° |
| 2026-05-06 10:34 | 39.48327 | -161.18887 | 35716 ft | 506 kts | 246° |
| 2026-05-06 10:34 | 39.44819 | -161.26795 | 35716 ft | 506 kts | 246° |
| 2026-05-06 10:35 | 39.41304 | -161.34698 | 35716 ft | 506 kts | 246° |
| 2026-05-06 10:35 | 39.37789 | -161.42581 | 35716 ft | 506 kts | 247° |
| 2026-05-06 10:36 | 39.34267 | -161.50461 | 35719 ft | 506 kts | 247° |
| 2026-05-06 10:36 | 39.30740 | -161.58330 | 35672 ft | 506 kts | 249° |
| 2026-05-06 10:37 | 39.27225 | -161.66156 | 35721 ft | 507 kts | 249° |
| 2026-05-06 10:37 | 39.23682 | -161.74024 | 35722 ft | 507 kts | 249° |
| 2026-05-06 10:38 | 39.20137 | -161.81874 | 35731 ft | 506 kts | 249° |
| 2026-05-06 10:38 | 39.16592 | -161.89708 | 35735 ft | 505 kts | 249° |
| 2026-05-06 10:39 | 39.13049 | -161.97516 | 35738 ft | 505 kts | 250° |
| 2026-05-06 10:39 | 39.09500 | -162.05320 | 35741 ft | 504 kts | 250° |
| 2026-05-06 10:40 | 39.05950 | -162.13104 | 35746 ft | 504 kts | 250° |
| 2026-05-06 10:40 | 39.02403 | -162.20859 | 35749 ft | 502 kts | 250° |
| 2026-05-06 10:41 | 38.98882 | -162.28545 | 35737 ft | 502 kts | 251° |
| 2026-05-06 10:41 | 38.95329 | -162.36287 | 35755 ft | 503 kts | 251° |
| 2026-05-06 10:42 | 38.91767 | -162.44026 | 35771 ft | 503 kts | 251° |
| 2026-05-06 10:42 | 38.88203 | -162.51744 | 35766 ft | 502 kts | 251° |
| 2026-05-06 10:43 | 38.84639 | -162.59445 | 35771 ft | 502 kts | 251° |
| 2026-05-06 10:44 | 38.79288 | -162.70976 | 35782 ft | 501 kts | 252° |
| 2026-05-06 10:44 | 38.75717 | -162.78649 | 35782 ft | 502 kts | 252° |
| 2026-05-06 10:45 | 38.72138 | -162.86320 | 35785 ft | 500 kts | 252° |
| 2026-05-06 10:45 | 38.68566 | -162.93955 | 35786 ft | 500 kts | 252° |
| 2026-05-06 10:46 | 38.64999 | -163.01560 | 35795 ft | 496 kts | 252° |
| 2026-05-06 10:46 | 38.61455 | -163.09093 | 35801 ft | 493 kts | 252° |
| 2026-05-06 10:47 | 38.57922 | -163.16601 | 35804 ft | 493 kts | 252° |
| 2026-05-06 10:47 | 38.54383 | -163.24101 | 35812 ft | 491 kts | 252° |
| 2026-05-06 10:48 | 38.50851 | -163.31564 | 35777 ft | 490 kts | 252° |
| 2026-05-06 10:48 | 38.47347 | -163.38947 | 35822 ft | 488 kts | 252° |
| 2026-05-06 10:49 | 38.43829 | -163.46349 | 35825 ft | 488 kts | 252° |
| 2026-05-06 10:49 | 38.40311 | -163.53738 | 35819 ft | 488 kts | 252° |
| 2026-05-06 10:50 | 38.36784 | -163.61123 | 35828 ft | 487 kts | 252° |
| 2026-05-06 10:50 | 38.33253 | -163.68501 | 35824 ft | 487 kts | 252° |
| 2026-05-06 10:51 | 38.29730 | -163.75840 | 35840 ft | 486 kts | 252° |
| 2026-05-06 10:51 | 38.26202 | -163.83177 | 35842 ft | 486 kts | 252° |
| 2026-05-06 10:52 | 38.22673 | -163.90501 | 35822 ft | 485 kts | 251° |
| 2026-05-06 10:52 | 38.19142 | -163.97810 | 35855 ft | 485 kts | 251° |
| 2026-05-06 10:53 | 38.15608 | -164.05109 | 35849 ft | 484 kts | 251° |
| 2026-05-06 10:53 | 38.12107 | -164.12322 | 35862 ft | 483 kts | 251° |
| 2026-05-06 10:54 | 38.08575 | -164.19587 | 35862 ft | 483 kts | 251° |
| 2026-05-06 10:54 | 38.05044 | -164.26833 | 35849 ft | 482 kts | 251° |
| 2026-05-06 10:55 | 38.01510 | -164.34068 | 35866 ft | 482 kts | 251° |
| 2026-05-06 10:55 | 37.97978 | -164.41282 | 35874 ft | 480 kts | 251° |
| 2026-05-06 10:56 | 37.94475 | -164.48417 | 35875 ft | 479 kts | 251° |
| 2026-05-06 10:56 | 37.90959 | -164.55570 | 35884 ft | 479 kts | 251° |
| 2026-05-06 10:57 | 37.87435 | -164.62725 | 35883 ft | 479 kts | 251° |
| 2026-05-06 10:57 | 37.83908 | -164.69867 | 35893 ft | 479 kts | 250° |
| 2026-05-06 10:58 | 37.80373 | -164.77009 | 35892 ft | 479 kts | 250° |
| 2026-05-06 10:58 | 37.76838 | -164.84136 | 35895 ft | 479 kts | 250° |
| 2026-05-06 10:59 | 37.73297 | -164.91259 | 35895 ft | 479 kts | 250° |
| 2026-05-06 10:59 | 37.69750 | -164.98377 | 35885 ft | 479 kts | 250° |
| 2026-05-06 11:00 | 37.66202 | -165.05483 | 35899 ft | 478 kts | 250° |
| 2026-05-06 11:00 | 37.62658 | -165.12564 | 35903 ft | 475 kts | 250° |
| 2026-05-06 11:01 | 37.59125 | -165.19609 | 35905 ft | 475 kts | 250° |
| 2026-05-06 11:01 | 37.55594 | -165.26639 | 35909 ft | 475 kts | 250° |
| 2026-05-06 11:02 | 37.52081 | -165.33617 | 35914 ft | 475 kts | 250° |
| 2026-05-06 11:02 | 37.48517 | -165.40682 | 35911 ft | 475 kts | 250° |
| 2026-05-06 11:03 | 37.45002 | -165.47633 | 35914 ft | 473 kts | 249° |
| 2026-05-06 11:03 | 37.41469 | -165.54599 | 35922 ft | 472 kts | 249° |
| 2026-05-06 11:04 | 37.37940 | -165.61551 | 35926 ft | 472 kts | 249° |
| 2026-05-06 11:04 | 37.34403 | -165.68504 | 35924 ft | 472 kts | 249° |
| 2026-05-06 11:05 | 37.30866 | -165.75440 | 35916 ft | 472 kts | 249° |
| 2026-05-06 11:05 | 37.27323 | -165.82372 | 35929 ft | 471 kts | 248° |
| 2026-05-06 11:06 | 37.23781 | -165.89286 | 35936 ft | 470 kts | 248° |
| 2026-05-06 11:06 | 37.20245 | -165.96179 | 35936 ft | 470 kts | 248° |
| 2026-05-06 11:07 | 37.16698 | -166.03080 | 35941 ft | 470 kts | 248° |
| 2026-05-06 11:07 | 37.13151 | -166.09964 | 35934 ft | 470 kts | 248° |
| 2026-05-06 11:08 | 37.09622 | -166.16798 | 35936 ft | 470 kts | 248° |
| 2026-05-06 11:08 | 37.06076 | -166.23646 | 35949 ft | 468 kts | 248° |
| 2026-05-06 11:09 | 37.02526 | -166.30495 | 35946 ft | 468 kts | 248° |
| 2026-05-06 11:09 | 36.98979 | -166.37326 | 35958 ft | 468 kts | 248° |
| 2026-05-06 11:10 | 36.95427 | -166.44151 | 35955 ft | 468 kts | 247° |
| 2026-05-06 11:10 | 36.91875 | -166.50962 | 35946 ft | 468 kts | 246° |
| 2026-05-06 11:11 | 36.88315 | -166.57769 | 35965 ft | 467 kts | 246° |
| 2026-05-06 11:11 | 36.84761 | -166.64554 | 35972 ft | 467 kts | 246° |
| 2026-05-06 11:12 | 36.81205 | -166.71333 | 35972 ft | 467 kts | 246° |
| 2026-05-06 11:12 | 36.77642 | -166.78110 | 35968 ft | 467 kts | 246° |
| 2026-05-06 11:13 | 36.74075 | -166.84881 | 35944 ft | 467 kts | 246° |
| 2026-05-06 11:13 | 36.70506 | -166.91637 | 35972 ft | 466 kts | 246° |
| 2026-05-06 11:14 | 36.66966 | -166.98328 | 35982 ft | 465 kts | 246° |
| 2026-05-06 11:14 | 36.63398 | -167.05062 | 35982 ft | 466 kts | 246° |
| 2026-05-06 11:15 | 36.59824 | -167.11793 | 35983 ft | 466 kts | 246° |
| 2026-05-06 11:15 | 36.56249 | -167.18512 | 35985 ft | 466 kts | 246° |
| 2026-05-06 11:16 | 36.52671 | -167.25222 | 35976 ft | 466 kts | 245° |
| 2026-05-06 11:16 | 36.49091 | -167.31922 | 35987 ft | 466 kts | 245° |
| 2026-05-06 11:17 | 36.46108 | -167.37495 | 35996 ft | 466 kts | 245° |
| 2026-05-06 11:17 | 36.42515 | -167.44195 | 35996 ft | 466 kts | 245° |
| 2026-05-06 11:18 | 36.38922 | -167.50883 | 35996 ft | 466 kts | 245° |
| 2026-05-06 11:18 | 36.35325 | -167.57566 | 36003 ft | 466 kts | 245° |
| 2026-05-06 11:19 | 36.31720 | -167.64249 | 36003 ft | 465 kts | 244° |
| 2026-05-06 11:19 | 36.28121 | -167.70907 | 36006 ft | 465 kts | 244° |
| 2026-05-06 11:20 | 36.23931 | -167.78646 | 36007 ft | 465 kts | 244° |
| 2026-05-06 11:20 | 36.20911 | -167.84211 | 36013 ft | 465 kts | 244° |
| 2026-05-06 11:21 | 36.17299 | -167.90856 | 36014 ft | 465 kts | 244° |
| 2026-05-06 11:21 | 36.13680 | -167.97501 | 35983 ft | 465 kts | 244° |
| 2026-05-06 11:22 | 36.10089 | -168.04080 | 36017 ft | 464 kts | 244° |
| 2026-05-06 11:22 | 36.06473 | -168.10694 | 36023 ft | 464 kts | 244° |
| 2026-05-06 11:23 | 36.02853 | -168.17304 | 36025 ft | 464 kts | 244° |
| 2026-05-06 11:23 | 35.99231 | -168.23903 | 36027 ft | 464 kts | 244° |
| 2026-05-06 11:24 | 35.95604 | -168.30501 | 36036 ft | 464 kts | 244° |
| 2026-05-06 11:24 | 35.91976 | -168.37084 | 36028 ft | 464 kts | 244° |
| 2026-05-06 11:25 | 35.88340 | -168.43672 | 36033 ft | 464 kts | 244° |
| 2026-05-06 11:25 | 35.84705 | -168.50244 | 36039 ft | 464 kts | 244° |
| 2026-05-06 11:26 | 35.81062 | -168.56819 | 36036 ft | 464 kts | 244° |
| 2026-05-06 11:26 | 35.77440 | -168.63343 | 36034 ft | 464 kts | 244° |
| 2026-05-06 11:27 | 35.73794 | -168.69899 | 36025 ft | 464 kts | 243° |
| 2026-05-06 11:27 | 35.70143 | -168.76449 | 36038 ft | 464 kts | 243° |
| 2026-05-06 11:28 | 35.66493 | -168.82986 | 36039 ft | 463 kts | 243° |
| 2026-05-06 11:28 | 35.62843 | -168.89513 | 36048 ft | 463 kts | 243° |
| 2026-05-06 11:29 | 35.59184 | -168.96042 | 36048 ft | 463 kts | 243° |
| 2026-05-06 11:29 | 35.55526 | -169.02557 | 36048 ft | 463 kts | 243° |
| 2026-05-06 11:30 | 35.51864 | -169.09067 | 36052 ft | 463 kts | 243° |
| 2026-05-06 11:30 | 35.48205 | -169.15559 | 36055 ft | 462 kts | 243° |
| 2026-05-06 11:31 | 35.44541 | -169.22048 | 36059 ft | 462 kts | 243° |
| 2026-05-06 11:31 | 35.40877 | -169.28528 | 36061 ft | 462 kts | 243° |
| 2026-05-06 11:32 | 35.37235 | -169.34954 | 36065 ft | 462 kts | 243° |
| 2026-05-06 11:32 | 35.33565 | -169.41420 | 36064 ft | 462 kts | 243° |
| 2026-05-06 11:33 | 35.29888 | -169.47883 | 36069 ft | 462 kts | 242° |
| 2026-05-06 11:33 | 35.26212 | -169.54334 | 36069 ft | 462 kts | 242° |
| 2026-05-06 11:34 | 35.22530 | -169.60784 | 36073 ft | 462 kts | 242° |
| 2026-05-06 11:34 | 35.18842 | -169.67232 | 36076 ft | 462 kts | 242° |
| 2026-05-06 11:35 | 35.15151 | -169.73673 | 36077 ft | 462 kts | 242° |
| 2026-05-06 11:35 | 35.11460 | -169.80104 | 36077 ft | 462 kts | 242° |
| 2026-05-06 11:36 | 35.07765 | -169.86529 | 36073 ft | 462 kts | 242° |
| 2026-05-06 11:36 | 35.04063 | -169.92956 | 36083 ft | 463 kts | 242° |
| 2026-05-06 11:37 | 35.00468 | -169.99448 | 36083 ft | 458 kts | 248° |
| 2026-05-06 11:37 | 34.97789 | -170.06357 | 36087 ft | 452 kts | 253° |
| 2026-05-06 11:38 | 34.95345 | -170.13409 | 36085 ft | 451 kts | 253° |
| 2026-05-06 11:38 | 34.92938 | -170.20475 | 36092 ft | 451 kts | 253° |
| 2026-05-06 11:39 | 34.90519 | -170.27525 | 36094 ft | 451 kts | 253° |
| 2026-05-06 11:39 | 34.88085 | -170.34566 | 36095 ft | 451 kts | 253° |
| 2026-05-06 11:40 | 34.85644 | -170.41598 | 36090 ft | 451 kts | 253° |
| 2026-05-06 11:40 | 34.83196 | -170.48635 | 36100 ft | 452 kts | 253° |
| 2026-05-06 11:41 | 34.80739 | -170.55683 | 36098 ft | 452 kts | 253° |
| 2026-05-06 11:41 | 34.78299 | -170.62662 | 36106 ft | 451 kts | 253° |
| 2026-05-06 11:42 | 34.75844 | -170.69673 | 36105 ft | 451 kts | 253° |
| 2026-05-06 11:42 | 34.73385 | -170.76683 | 36105 ft | 451 kts | 253° |
| 2026-05-06 11:43 | 34.70921 | -170.83689 | 36103 ft | 451 kts | 253° |
| 2026-05-06 11:43 | 34.68455 | -170.90685 | 36105 ft | 451 kts | 253° |
| 2026-05-06 11:44 | 34.64750 | -171.01166 | 36102 ft | 450 kts | 252° |
| 2026-05-06 11:44 | 34.62275 | -171.08152 | 36110 ft | 451 kts | 252° |
| 2026-05-06 11:45 | 34.59796 | -171.15129 | 36110 ft | 451 kts | 252° |
| 2026-05-06 11:45 | 34.57310 | -171.22112 | 36112 ft | 451 kts | 252° |
| 2026-05-06 11:46 | 34.54819 | -171.29094 | 36105 ft | 451 kts | 252° |
| 2026-05-06 11:46 | 34.52324 | -171.36069 | 36116 ft | 450 kts | 252° |
| 2026-05-06 11:47 | 34.49830 | -171.43030 | 36115 ft | 450 kts | 252° |
| 2026-05-06 11:47 | 34.47333 | -171.49983 | 36115 ft | 450 kts | 252° |
| 2026-05-06 11:48 | 34.44836 | -171.56923 | 36120 ft | 450 kts | 252° |
| 2026-05-06 11:48 | 34.42327 | -171.63878 | 36108 ft | 451 kts | 252° |
| 2026-05-06 11:49 | 34.39812 | -171.70838 | 36119 ft | 451 kts | 252° |
| 2026-05-06 11:49 | 34.37311 | -171.77740 | 36117 ft | 451 kts | 252° |
| 2026-05-06 11:50 | 34.34790 | -171.84684 | 36128 ft | 451 kts | 252° |
| 2026-05-06 11:50 | 34.32265 | -171.91624 | 36126 ft | 451 kts | 252° |
| 2026-05-06 11:51 | 34.29733 | -171.98568 | 36125 ft | 451 kts | 252° |
| 2026-05-06 11:51 | 34.27201 | -172.05497 | 36132 ft | 451 kts | 252° |
| 2026-05-06 11:52 | 34.24664 | -172.12425 | 36134 ft | 451 kts | 251° |
| 2026-05-06 11:52 | 34.22124 | -172.19349 | 36114 ft | 451 kts | 251° |
| 2026-05-06 11:53 | 34.19573 | -172.26287 | 36133 ft | 452 kts | 251° |
| 2026-05-06 11:53 | 34.17011 | -172.33239 | 36135 ft | 453 kts | 251° |
| 2026-05-06 11:54 | 34.14449 | -172.40175 | 36133 ft | 453 kts | 251° |
| 2026-05-06 11:54 | 34.11884 | -172.47102 | 36135 ft | 452 kts | 251° |
| 2026-05-06 11:55 | 34.09333 | -172.53980 | 36135 ft | 451 kts | 251° |
| 2026-05-06 11:55 | 34.06766 | -172.60889 | 36134 ft | 451 kts | 251° |
| 2026-05-06 11:56 | 34.04190 | -172.67805 | 36137 ft | 451 kts | 251° |
| 2026-05-06 11:56 | 34.01615 | -172.74704 | 36141 ft | 451 kts | 251° |
| 2026-05-06 11:57 | 33.99037 | -172.81598 | 36130 ft | 452 kts | 251° |
| 2026-05-06 11:57 | 33.96447 | -172.88508 | 36143 ft | 452 kts | 251° |
| 2026-05-06 11:58 | 33.93853 | -172.95413 | 36135 ft | 452 kts | 251° |
| 2026-05-06 11:58 | 33.91256 | -173.02312 | 36140 ft | 452 kts | 251° |
| 2026-05-06 11:59 | 33.88655 | -173.09209 | 36145 ft | 452 kts | 251° |
| 2026-05-06 11:59 | 33.86051 | -173.16097 | 36130 ft | 452 kts | 250° |
| 2026-05-06 12:00 | 33.83460 | -173.22938 | 36143 ft | 451 kts | 250° |
| 2026-05-06 12:00 | 33.80859 | -173.29791 | 36150 ft | 451 kts | 250° |
| 2026-05-06 12:01 | 33.78257 | -173.36633 | 36146 ft | 450 kts | 250° |
| 2026-05-06 12:01 | 33.75647 | -173.43484 | 36148 ft | 450 kts | 250° |
| 2026-05-06 12:02 | 33.73034 | -173.50327 | 36150 ft | 450 kts | 250° |
| 2026-05-06 12:02 | 33.70418 | -173.57162 | 36158 ft | 450 kts | 250° |
| 2026-05-06 12:03 | 33.67798 | -173.63994 | 36156 ft | 450 kts | 250° |
| 2026-05-06 12:03 | 33.65178 | -173.70811 | 36156 ft | 450 kts | 250° |
| 2026-05-06 12:04 | 33.62552 | -173.77633 | 36162 ft | 450 kts | 250° |
| 2026-05-06 12:04 | 33.59922 | -173.84450 | 36149 ft | 450 kts | 250° |
| 2026-05-06 12:05 | 33.57290 | -173.91258 | 36148 ft | 450 kts | 250° |
| 2026-05-06 12:05 | 33.54657 | -173.98056 | 36149 ft | 449 kts | 250° |
| 2026-05-06 12:06 | 33.52010 | -174.04877 | 36157 ft | 452 kts | 250° |
| 2026-05-06 12:06 | 33.49373 | -174.11658 | 36157 ft | 453 kts | 250° |
| 2026-05-06 12:07 | 33.46711 | -174.18487 | 36154 ft | 452 kts | 250° |
| 2026-05-06 12:07 | 33.44043 | -174.25317 | 36165 ft | 452 kts | 249° |
| 2026-05-06 12:08 | 33.41372 | -174.32143 | 36164 ft | 452 kts | 249° |
| 2026-05-06 12:08 | 33.39153 | -174.37804 | 36165 ft | 452 kts | 249° |
| 2026-05-06 12:09 | 33.36482 | -174.44604 | 36162 ft | 452 kts | 249° |
| 2026-05-06 12:09 | 33.33373 | -174.52505 | 36168 ft | 452 kts | 249° |
| 2026-05-06 12:10 | 33.31129 | -174.58196 | 36165 ft | 452 kts | 249° |
| 2026-05-06 12:10 | 33.28445 | -174.64991 | 36165 ft | 453 kts | 249° |
| 2026-05-06 12:11 | 33.25747 | -174.71805 | 36170 ft | 454 kts | 249° |
| 2026-05-06 12:11 | 33.23062 | -174.78574 | 36170 ft | 453 kts | 249° |
| 2026-05-06 12:12 | 33.20357 | -174.85376 | 36170 ft | 453 kts | 249° |
| 2026-05-06 12:12 | 33.17653 | -174.92166 | 36170 ft | 453 kts | 249° |
| 2026-05-06 12:13 | 33.14942 | -174.98962 | 36173 ft | 453 kts | 249° |
| 2026-05-06 12:13 | 33.12227 | -175.05752 | 36172 ft | 453 kts | 249° |
| 2026-05-06 12:14 | 33.09515 | -175.12519 | 36175 ft | 451 kts | 249° |
| 2026-05-06 12:14 | 33.06807 | -175.19265 | 36175 ft | 451 kts | 248° |
| 2026-05-06 12:15 | 33.04088 | -175.26030 | 36179 ft | 454 kts | 248° |
| 2026-05-06 12:15 | 33.01349 | -175.32829 | 36181 ft | 455 kts | 248° |
| 2026-05-06 12:16 | 32.98604 | -175.39625 | 36178 ft | 455 kts | 248° |
| 2026-05-06 12:16 | 32.95871 | -175.46377 | 36184 ft | 454 kts | 248° |
| 2026-05-06 12:17 | 32.93128 | -175.53141 | 36184 ft | 454 kts | 248° |
| 2026-05-06 12:17 | 32.90381 | -175.59908 | 36184 ft | 454 kts | 248° |
| 2026-05-06 12:18 | 32.87632 | -175.66663 | 36184 ft | 454 kts | 248° |
| 2026-05-06 12:18 | 32.84881 | -175.73412 | 36186 ft | 453 kts | 248° |
| 2026-05-06 12:19 | 32.82123 | -175.80163 | 36187 ft | 453 kts | 248° |
| 2026-05-06 12:19 | 32.79357 | -175.86921 | 36187 ft | 456 kts | 248° |
| 2026-05-06 12:20 | 32.76575 | -175.93706 | 36186 ft | 457 kts | 248° |
| 2026-05-06 12:20 | 32.73787 | -176.00489 | 36186 ft | 457 kts | 248° |
| 2026-05-06 12:21 | 32.70996 | -176.07268 | 36186 ft | 457 kts | 248° |
| 2026-05-06 12:21 | 32.68199 | -176.14049 | 36189 ft | 457 kts | 248° |
| 2026-05-06 12:22 | 32.65401 | -176.20819 | 36193 ft | 456 kts | 248° |
| 2026-05-06 12:22 | 32.62606 | -176.27568 | 36194 ft | 456 kts | 247° |
| 2026-05-06 12:23 | 32.59822 | -176.34278 | 36195 ft | 456 kts | 247° |
| 2026-05-06 12:23 | 32.57004 | -176.41059 | 36195 ft | 456 kts | 247° |
| 2026-05-06 12:24 | 32.54212 | -176.47765 | 36198 ft | 458 kts | 247° |
| 2026-05-06 12:24 | 32.51385 | -176.54541 | 36193 ft | 459 kts | 247° |
| 2026-05-06 12:25 | 32.48551 | -176.61318 | 36196 ft | 458 kts | 247° |
| 2026-05-06 12:25 | 32.45719 | -176.68076 | 36201 ft | 458 kts | 247° |
| 2026-05-06 12:26 | 32.42887 | -176.74826 | 36201 ft | 458 kts | 247° |
| 2026-05-06 12:26 | 32.40050 | -176.81573 | 36205 ft | 458 kts | 247° |
| 2026-05-06 12:27 | 32.37210 | -176.88316 | 36203 ft | 458 kts | 247° |
| 2026-05-06 12:27 | 32.34366 | -176.95054 | 36203 ft | 458 kts | 246° |
| 2026-05-06 12:28 | 32.31521 | -177.01782 | 36201 ft | 457 kts | 246° |
| 2026-05-06 12:28 | 32.28668 | -177.08520 | 36204 ft | 460 kts | 246° |
| 2026-05-06 12:29 | 32.25795 | -177.15288 | 36211 ft | 461 kts | 246° |
| 2026-05-06 12:29 | 32.22938 | -177.22006 | 36211 ft | 461 kts | 246° |
| 2026-05-06 12:30 | 32.20055 | -177.28773 | 36213 ft | 461 kts | 246° |
| 2026-05-06 12:30 | 32.17171 | -177.35529 | 36213 ft | 460 kts | 246° |
| 2026-05-06 12:31 | 32.14290 | -177.42266 | 36217 ft | 460 kts | 246° |
| 2026-05-06 12:31 | 32.11407 | -177.48995 | 36216 ft | 460 kts | 246° |
| 2026-05-06 12:32 | 32.08520 | -177.55721 | 36217 ft | 460 kts | 246° |
| 2026-05-06 12:32 | 32.05643 | -177.62411 | 36217 ft | 460 kts | 246° |
| 2026-05-06 12:33 | 32.02743 | -177.69143 | 36216 ft | 462 kts | 245° |
| 2026-05-06 12:33 | 31.99826 | -177.75902 | 36224 ft | 462 kts | 245° |
| 2026-05-06 12:34 | 31.96909 | -177.82645 | 36218 ft | 462 kts | 245° |
| 2026-05-06 12:34 | 31.93985 | -177.89393 | 36225 ft | 462 kts | 245° |
| 2026-05-06 12:35 | 31.91061 | -177.96131 | 36218 ft | 462 kts | 245° |
| 2026-05-06 12:35 | 31.88135 | -178.02860 | 36230 ft | 462 kts | 245° |
| 2026-05-06 12:36 | 31.85225 | -178.09538 | 36216 ft | 462 kts | 245° |
| 2026-05-06 12:36 | 31.82292 | -178.16260 | 36223 ft | 462 kts | 245° |
| 2026-05-06 12:37 | 31.79357 | -178.22971 | 36222 ft | 461 kts | 245° |
| 2026-05-06 12:37 | 31.76412 | -178.29695 | 36225 ft | 463 kts | 245° |
| 2026-05-06 12:38 | 31.73462 | -178.36418 | 36225 ft | 464 kts | 245° |
| 2026-05-06 12:38 | 31.70503 | -178.43147 | 36230 ft | 464 kts | 245° |
| 2026-05-06 12:39 | 31.67538 | -178.49878 | 36230 ft | 464 kts | 245° |
| 2026-05-06 12:39 | 31.64572 | -178.56599 | 36226 ft | 464 kts | 245° |
| 2026-05-06 12:40 | 31.61602 | -178.63316 | 36229 ft | 463 kts | 245° |
| 2026-05-06 12:40 | 31.58653 | -178.69976 | 36227 ft | 463 kts | 245° |
| 2026-05-06 12:41 | 31.55678 | -178.76681 | 36231 ft | 463 kts | 244° |
| 2026-05-06 12:41 | 31.52697 | -178.83387 | 36231 ft | 463 kts | 244° |
| 2026-05-06 12:42 | 31.49712 | -178.90091 | 36232 ft | 465 kts | 244° |
| 2026-05-06 12:42 | 31.46712 | -178.96816 | 36233 ft | 466 kts | 244° |
| 2026-05-06 12:43 | 31.43704 | -179.03546 | 36236 ft | 466 kts | 244° |
| 2026-05-06 12:43 | 31.40695 | -179.10265 | 36239 ft | 466 kts | 244° |
| 2026-05-06 12:44 | 31.37687 | -179.16973 | 36233 ft | 466 kts | 244° |
| 2026-05-06 12:44 | 31.34671 | -179.23684 | 36231 ft | 466 kts | 244° |
| 2026-05-06 12:45 | 31.31673 | -179.30345 | 36234 ft | 465 kts | 244° |
| 2026-05-06 12:46 | 31.27148 | -179.40374 | 36237 ft | 465 kts | 244° |
| 2026-05-06 12:46 | 31.24120 | -179.47070 | 36239 ft | 465 kts | 244° |
| 2026-05-06 12:47 | 31.21096 | -179.53747 | 36239 ft | 465 kts | 244° |
| 2026-05-06 12:47 | 31.18065 | -179.60426 | 36242 ft | 465 kts | 244° |
| 2026-05-06 12:48 | 31.15034 | -179.67095 | 36236 ft | 465 kts | 244° |
| 2026-05-06 12:48 | 31.11995 | -179.73767 | 36242 ft | 465 kts | 244° |
| 2026-05-06 12:49 | 31.08954 | -179.80434 | 36244 ft | 465 kts | 244° |
| 2026-05-06 12:49 | 31.05926 | -179.87059 | 36244 ft | 465 kts | 244° |
| 2026-05-06 12:50 | 31.02878 | -179.93717 | 36242 ft | 465 kts | 244° |
| 2026-05-06 12:50 | 31.00039 | 179.99545 | 36557 ft | 461 kts | 251° |
| 2026-05-06 12:50 | 30.99009 | 179.96021 | 36860 ft | 457 kts | 253° |
| 2026-05-06 12:51 | 30.98058 | 179.92494 | 37064 ft | 456 kts | 254° |
| 2026-05-06 12:51 | 30.97141 | 179.88946 | 37251 ft | 456 kts | 254° |
| 2026-05-06 12:51 | 30.96243 | 179.85398 | 37298 ft | 458 kts | 254° |
| 2026-05-06 12:52 | 30.94437 | 179.78238 | 37535 ft | 460 kts | 254° |
| 2026-05-06 12:52 | 30.93532 | 179.74672 | 37715 ft | 459 kts | 254° |
| 2026-05-06 12:52 | 30.92624 | 179.71115 | 37887 ft | 458 kts | 254° |
| 2026-05-06 12:52 | 30.91711 | 179.67554 | 38044 ft | 458 kts | 254° |
| 2026-05-06 12:53 | 30.90802 | 179.64013 | 38196 ft | 458 kts | 254° |
| 2026-05-06 12:53 | 30.88962 | 179.56872 | 38239 ft | 462 kts | 254° |
| 2026-05-06 12:54 | 30.87113 | 179.49715 | 38239 ft | 461 kts | 254° |
| 2026-05-06 12:54 | 30.85262 | 179.42564 | 38244 ft | 461 kts | 254° |
| 2026-05-06 12:55 | 30.83409 | 179.35425 | 38248 ft | 461 kts | 254° |
| 2026-05-06 12:55 | 30.81551 | 179.28283 | 38247 ft | 461 kts | 254° |
| 2026-05-06 12:56 | 30.79702 | 179.21192 | 38248 ft | 461 kts | 253° |
| 2026-05-06 12:56 | 30.77837 | 179.14058 | 38249 ft | 461 kts | 253° |
| 2026-05-06 12:57 | 30.75967 | 179.06925 | 38245 ft | 461 kts | 253° |
| 2026-05-06 12:57 | 30.74093 | 178.99792 | 38247 ft | 461 kts | 253° |
| 2026-05-06 12:58 | 30.72214 | 178.92657 | 38249 ft | 461 kts | 253° |
| 2026-05-06 12:58 | 30.70332 | 178.85530 | 38246 ft | 461 kts | 253° |
| 2026-05-06 12:59 | 30.68448 | 178.78413 | 38247 ft | 461 kts | 253° |
| 2026-05-06 12:59 | 30.66559 | 178.71292 | 38246 ft | 463 kts | 253° |
| 2026-05-06 13:00 | 30.64652 | 178.64122 | 38251 ft | 465 kts | 253° |
| 2026-05-06 13:00 | 30.62739 | 178.56948 | 38252 ft | 465 kts | 253° |
| 2026-05-06 13:01 | 30.60825 | 178.49788 | 38250 ft | 465 kts | 253° |
| 2026-05-06 13:01 | 30.59228 | 178.43828 | 38252 ft | 465 kts | 253° |
| 2026-05-06 13:02 | 30.57304 | 178.36660 | 38252 ft | 466 kts | 253° |
| 2026-05-06 13:02 | 30.55374 | 178.29489 | 38252 ft | 466 kts | 253° |
| 2026-05-06 13:03 | 30.53438 | 178.22313 | 38254 ft | 466 kts | 253° |
| 2026-05-06 13:03 | 30.51499 | 178.15146 | 38251 ft | 466 kts | 253° |
| 2026-05-06 13:04 | 30.49558 | 178.07986 | 38246 ft | 466 kts | 253° |
| 2026-05-06 13:04 | 30.47624 | 178.00869 | 38252 ft | 466 kts | 253° |
| 2026-05-06 13:05 | 30.45671 | 177.93700 | 38251 ft | 466 kts | 253° |
| 2026-05-06 13:05 | 30.43713 | 177.86530 | 38249 ft | 466 kts | 253° |
| 2026-05-06 13:06 | 30.41751 | 177.79362 | 38254 ft | 466 kts | 253° |
| 2026-05-06 13:06 | 30.39787 | 177.72206 | 38254 ft | 466 kts | 253° |
| 2026-05-06 13:07 | 30.37819 | 177.65052 | 38254 ft | 466 kts | 253° |
| 2026-05-06 13:07 | 30.35843 | 177.57883 | 38255 ft | 468 kts | 253° |
| 2026-05-06 13:08 | 30.33857 | 177.50698 | 38260 ft | 469 kts | 253° |
| 2026-05-06 13:08 | 30.31865 | 177.43506 | 38260 ft | 469 kts | 253° |
| 2026-05-06 13:09 | 30.29868 | 177.36317 | 38259 ft | 469 kts | 253° |
| 2026-05-06 13:09 | 30.27871 | 177.29140 | 38257 ft | 469 kts | 253° |
| 2026-05-06 13:10 | 30.25880 | 177.22004 | 38260 ft | 469 kts | 253° |
| 2026-05-06 13:10 | 30.23874 | 177.14832 | 38260 ft | 469 kts | 253° |
| 2026-05-06 13:11 | 30.21862 | 177.07654 | 38260 ft | 469 kts | 252° |
| 2026-05-06 13:11 | 30.19849 | 177.00490 | 38260 ft | 469 kts | 252° |
| 2026-05-06 13:12 | 30.17832 | 176.93328 | 38261 ft | 469 kts | 252° |
| 2026-05-06 13:12 | 30.15812 | 176.86173 | 38260 ft | 468 kts | 252° |
| 2026-05-06 13:13 | 30.13792 | 176.79032 | 38262 ft | 468 kts | 252° |
| 2026-05-06 13:13 | 30.11767 | 176.71892 | 38262 ft | 468 kts | 252° |
| 2026-05-06 13:14 | 30.09739 | 176.64759 | 38263 ft | 468 kts | 252° |
| 2026-05-06 13:14 | 30.07719 | 176.57667 | 38263 ft | 468 kts | 252° |
| 2026-05-06 13:15 | 30.05681 | 176.50533 | 38260 ft | 469 kts | 252° |
| 2026-05-06 13:15 | 30.03632 | 176.43372 | 38263 ft | 471 kts | 252° |
| 2026-05-06 13:16 | 30.01570 | 176.36185 | 38262 ft | 471 kts | 252° |
| 2026-05-06 13:16 | 29.99509 | 176.29018 | 38260 ft | 471 kts | 252° |
| 2026-05-06 13:17 | 29.97439 | 176.21837 | 38263 ft | 471 kts | 252° |
| 2026-05-06 13:17 | 29.95369 | 176.14672 | 38262 ft | 471 kts | 252° |
| 2026-05-06 13:18 | 29.93298 | 176.07518 | 38265 ft | 470 kts | 252° |
| 2026-05-06 13:18 | 29.91225 | 176.00375 | 38268 ft | 470 kts | 252° |
| 2026-05-06 13:19 | 29.89145 | 175.93225 | 38265 ft | 470 kts | 252° |
| 2026-05-06 13:19 | 29.87064 | 175.86086 | 38271 ft | 470 kts | 252° |
| 2026-05-06 13:20 | 29.84981 | 175.78955 | 38267 ft | 470 kts | 252° |
| 2026-05-06 13:20 | 29.82895 | 175.71832 | 38268 ft | 469 kts | 252° |
| 2026-05-06 13:21 | 29.80805 | 175.64711 | 38272 ft | 469 kts | 252° |
| 2026-05-06 13:21 | 29.78712 | 175.57599 | 38271 ft | 469 kts | 252° |
| 2026-05-06 13:22 | 29.76618 | 175.50494 | 38271 ft | 469 kts | 252° |
| 2026-05-06 13:22 | 29.74520 | 175.43393 | 38259 ft | 469 kts | 252° |
| 2026-05-06 13:23 | 29.72411 | 175.36274 | 38265 ft | 471 kts | 251° |
| 2026-05-06 13:23 | 29.70294 | 175.29140 | 38275 ft | 471 kts | 251° |
| 2026-05-06 13:24 | 29.68192 | 175.22072 | 38280 ft | 471 kts | 251° |
| 2026-05-06 13:24 | 29.66069 | 175.14953 | 38268 ft | 471 kts | 251° |
| 2026-05-06 13:25 | 29.63941 | 175.07829 | 38281 ft | 471 kts | 251° |
| 2026-05-06 13:25 | 29.61813 | 175.00723 | 38279 ft | 470 kts | 251° |
| 2026-05-06 13:26 | 29.59684 | 174.93627 | 38267 ft | 470 kts | 251° |
| 2026-05-06 13:26 | 29.57551 | 174.86537 | 38279 ft | 470 kts | 251° |
| 2026-05-06 13:27 | 29.55415 | 174.79447 | 38281 ft | 470 kts | 251° |
| 2026-05-06 13:27 | 29.53272 | 174.72355 | 38271 ft | 469 kts | 251° |
| 2026-05-06 13:28 | 29.51131 | 174.65281 | 38282 ft | 469 kts | 251° |
| 2026-05-06 13:28 | 29.48983 | 174.58199 | 38281 ft | 469 kts | 251° |
| 2026-05-06 13:29 | 29.46832 | 174.51128 | 38280 ft | 470 kts | 251° |
| 2026-05-06 13:29 | 29.44678 | 174.44059 | 38283 ft | 470 kts | 251° |
| 2026-05-06 13:30 | 29.42520 | 174.36990 | 38286 ft | 470 kts | 251° |
| 2026-05-06 13:30 | 29.40353 | 174.29911 | 38286 ft | 471 kts | 250° |
| 2026-05-06 13:31 | 29.38177 | 174.22812 | 38286 ft | 472 kts | 250° |
| 2026-05-06 13:31 | 29.36009 | 174.15758 | 38283 ft | 472 kts | 250° |
| 2026-05-06 13:32 | 29.33822 | 174.08658 | 38285 ft | 472 kts | 250° |
| 2026-05-06 13:32 | 29.31632 | 174.01563 | 38288 ft | 472 kts | 250° |
| 2026-05-06 13:33 | 29.29437 | 173.94469 | 38286 ft | 472 kts | 250° |
| 2026-05-06 13:33 | 29.27240 | 173.87378 | 38284 ft | 472 kts | 250° |
| 2026-05-06 13:34 | 29.25042 | 173.80303 | 38287 ft | 472 kts | 250° |
| 2026-05-06 13:34 | 29.22841 | 173.73233 | 38290 ft | 472 kts | 250° |
| 2026-05-06 13:35 | 29.20633 | 173.66158 | 38288 ft | 472 kts | 250° |
| 2026-05-06 13:35 | 29.18426 | 173.59097 | 38294 ft | 472 kts | 250° |
| 2026-05-06 13:36 | 29.16209 | 173.52019 | 38287 ft | 472 kts | 249° |
| 2026-05-06 13:36 | 29.14007 | 173.45005 | 38292 ft | 472 kts | 249° |
| 2026-05-06 13:37 | 29.11786 | 173.37946 | 38293 ft | 472 kts | 249° |
| 2026-05-06 13:37 | 29.09557 | 173.30876 | 38295 ft | 472 kts | 249° |
| 2026-05-06 13:38 | 29.07328 | 173.23820 | 38285 ft | 472 kts | 249° |
| 2026-05-06 13:38 | 29.05088 | 173.16744 | 38290 ft | 474 kts | 249° |
| 2026-05-06 13:39 | 29.02834 | 173.09637 | 38295 ft | 475 kts | 249° |
| 2026-05-06 13:39 | 29.00575 | 173.02535 | 38294 ft | 476 kts | 249° |
| 2026-05-06 13:40 | 28.98312 | 172.95431 | 38296 ft | 476 kts | 249° |
| 2026-05-06 13:40 | 28.96048 | 172.88338 | 38291 ft | 476 kts | 249° |
| 2026-05-06 13:41 | 28.93777 | 172.81238 | 38293 ft | 476 kts | 249° |
| 2026-05-06 13:41 | 28.91516 | 172.74187 | 38293 ft | 476 kts | 249° |
| 2026-05-06 13:42 | 28.89238 | 172.67095 | 38297 ft | 476 kts | 249° |
| 2026-05-06 13:42 | 28.86962 | 172.60023 | 38297 ft | 476 kts | 249° |
| 2026-05-06 13:43 | 28.84675 | 172.52933 | 38295 ft | 475 kts | 249° |
| 2026-05-06 13:43 | 28.82388 | 172.45858 | 38296 ft | 476 kts | 249° |
| 2026-05-06 13:44 | 28.80097 | 172.38782 | 38296 ft | 476 kts | 248° |
| 2026-05-06 13:44 | 28.77802 | 172.31712 | 38297 ft | 475 kts | 248° |
| 2026-05-06 13:45 | 28.75504 | 172.24647 | 38295 ft | 475 kts | 248° |
| 2026-05-06 13:45 | 28.72050 | 172.14052 | 38291 ft | 476 kts | 248° |
| 2026-05-06 13:46 | 28.69734 | 172.06968 | 38298 ft | 478 kts | 248° |
| 2026-05-06 13:46 | 28.67411 | 171.99873 | 38294 ft | 478 kts | 248° |
| 2026-05-06 13:47 | 28.65087 | 171.92795 | 38297 ft | 478 kts | 248° |
| 2026-05-06 13:47 | 28.62773 | 171.85758 | 38297 ft | 478 kts | 248° |
| 2026-05-06 13:48 | 28.60443 | 171.78686 | 38297 ft | 477 kts | 248° |
| 2026-05-06 13:48 | 28.58108 | 171.71615 | 38296 ft | 477 kts | 248° |
| 2026-05-06 13:49 | 28.55768 | 171.64542 | 38299 ft | 477 kts | 248° |
| 2026-05-06 13:49 | 28.53420 | 171.57461 | 38299 ft | 479 kts | 248° |
| 2026-05-06 13:50 | 28.51067 | 171.50376 | 38302 ft | 479 kts | 248° |
| 2026-05-06 13:50 | 28.48708 | 171.43290 | 38303 ft | 479 kts | 248° |
| 2026-05-06 13:51 | 28.46347 | 171.36212 | 38295 ft | 479 kts | 247° |
| 2026-05-06 13:51 | 28.43984 | 171.29139 | 38302 ft | 479 kts | 247° |
| 2026-05-06 13:52 | 28.41628 | 171.22104 | 38297 ft | 479 kts | 247° |
| 2026-05-06 13:52 | 28.39252 | 171.15022 | 38299 ft | 479 kts | 247° |
| 2026-05-06 13:53 | 28.36876 | 171.07955 | 38295 ft | 480 kts | 247° |
| 2026-05-06 13:53 | 28.34485 | 171.00859 | 38302 ft | 481 kts | 247° |
| 2026-05-06 13:54 | 28.32087 | 170.93753 | 38303 ft | 482 kts | 247° |
| 2026-05-06 13:54 | 28.30092 | 170.87853 | 38303 ft | 482 kts | 247° |
| 2026-05-06 13:55 | 28.27689 | 170.80761 | 38305 ft | 482 kts | 247° |
| 2026-05-06 13:55 | 28.25279 | 170.73660 | 38303 ft | 482 kts | 247° |
| 2026-05-06 13:56 | 28.22866 | 170.66563 | 38305 ft | 482 kts | 247° |
| 2026-05-06 13:56 | 28.20449 | 170.59471 | 38305 ft | 482 kts | 247° |
| 2026-05-06 13:57 | 28.18027 | 170.52377 | 38302 ft | 482 kts | 247° |
| 2026-05-06 13:57 | 28.15601 | 170.45285 | 38301 ft | 482 kts | 247° |
| 2026-05-06 13:58 | 28.13175 | 170.38206 | 38302 ft | 482 kts | 247° |
| 2026-05-06 13:58 | 28.10744 | 170.31128 | 38300 ft | 482 kts | 247° |
| 2026-05-06 13:59 | 28.08322 | 170.24090 | 38304 ft | 482 kts | 247° |
| 2026-05-06 13:59 | 28.05885 | 170.17022 | 38302 ft | 482 kts | 247° |
| 2026-05-06 14:00 | 28.03441 | 170.09948 | 38302 ft | 482 kts | 247° |
| 2026-05-06 14:00 | 28.00996 | 170.02885 | 38309 ft | 482 kts | 247° |
| 2026-05-06 14:01 | 27.98886 | 169.95678 | 38306 ft | 483 kts | 251° |
| 2026-05-06 14:01 | 27.96981 | 169.88385 | 38305 ft | 483 kts | 252° |
| 2026-05-06 14:02 | 27.95105 | 169.81091 | 38304 ft | 483 kts | 252° |
| 2026-05-06 14:02 | 27.93221 | 169.73785 | 38305 ft | 484 kts | 252° |
| 2026-05-06 14:03 | 27.91324 | 169.66474 | 38303 ft | 484 kts | 252° |
| 2026-05-06 14:03 | 27.89421 | 169.59173 | 38305 ft | 485 kts | 252° |
| 2026-05-06 14:04 | 27.87515 | 169.51871 | 38303 ft | 484 kts | 251° |
| 2026-05-06 14:04 | 27.85602 | 169.44570 | 38304 ft | 485 kts | 252° |
| 2026-05-06 14:05 | 27.83685 | 169.37262 | 38302 ft | 485 kts | 252° |
| 2026-05-06 14:05 | 27.81765 | 169.29958 | 38303 ft | 485 kts | 252° |
| 2026-05-06 14:06 | 27.79839 | 169.22651 | 38301 ft | 486 kts | 252° |
| 2026-05-06 14:06 | 27.77921 | 169.15391 | 38302 ft | 485 kts | 252° |
| 2026-05-06 14:07 | 27.75986 | 169.08088 | 38297 ft | 486 kts | 252° |
| 2026-05-06 14:07 | 27.74049 | 169.00785 | 38302 ft | 485 kts | 252° |
| 2026-05-06 14:08 | 27.72108 | 168.93494 | 38304 ft | 485 kts | 252° |
| 2026-05-06 14:08 | 27.70163 | 168.86201 | 38306 ft | 485 kts | 252° |
| 2026-05-06 14:09 | 27.68214 | 168.78911 | 38305 ft | 485 kts | 251° |
| 2026-05-06 14:09 | 27.66259 | 168.71617 | 38303 ft | 486 kts | 252° |
| 2026-05-06 14:10 | 27.64301 | 168.64322 | 38302 ft | 487 kts | 252° |
| 2026-05-06 14:10 | 27.62333 | 168.57014 | 38302 ft | 487 kts | 252° |
| 2026-05-06 14:11 | 27.60360 | 168.49699 | 38301 ft | 487 kts | 252° |
| 2026-05-06 14:11 | 27.58396 | 168.42434 | 38295 ft | 488 kts | 252° |
| 2026-05-06 14:12 | 27.56414 | 168.35117 | 38300 ft | 489 kts | 252° |
| 2026-05-06 14:12 | 27.54423 | 168.27792 | 38300 ft | 490 kts | 252° |
| 2026-05-06 14:13 | 27.52419 | 168.20434 | 38296 ft | 491 kts | 252° |
| 2026-05-06 14:13 | 27.50415 | 168.13090 | 38294 ft | 491 kts | 252° |
| 2026-05-06 14:14 | 27.48402 | 168.05732 | 38294 ft | 491 kts | 252° |
| 2026-05-06 14:14 | 27.46391 | 167.98396 | 38298 ft | 490 kts | 252° |
| 2026-05-06 14:15 | 27.44374 | 167.91057 | 38296 ft | 492 kts | 253° |
| 2026-05-06 14:15 | 27.42345 | 167.83690 | 38302 ft | 493 kts | 253° |
| 2026-05-06 14:16 | 27.40328 | 167.76379 | 38301 ft | 493 kts | 253° |
| 2026-05-06 14:16 | 27.38289 | 167.69008 | 38298 ft | 493 kts | 253° |
| 2026-05-06 14:17 | 27.36246 | 167.61642 | 38298 ft | 493 kts | 253° |
| 2026-05-06 14:17 | 27.34198 | 167.54276 | 38298 ft | 494 kts | 253° |
| 2026-05-06 14:18 | 27.32142 | 167.46893 | 38299 ft | 495 kts | 253° |
| 2026-05-06 14:18 | 27.30079 | 167.39499 | 38297 ft | 496 kts | 253° |
| 2026-05-06 14:19 | 27.28012 | 167.32111 | 38295 ft | 495 kts | 253° |
| 2026-05-06 14:19 | 27.25942 | 167.24730 | 38297 ft | 496 kts | 253° |
| 2026-05-06 14:20 | 27.23866 | 167.17342 | 38287 ft | 496 kts | 253° |
| 2026-05-06 14:20 | 27.21781 | 167.09943 | 38289 ft | 497 kts | 253° |
| 2026-05-06 14:21 | 27.19690 | 167.02536 | 38289 ft | 497 kts | 253° |
| 2026-05-06 14:21 | 27.17598 | 166.95140 | 38287 ft | 497 kts | 253° |
| 2026-05-06 14:22 | 27.15498 | 166.87737 | 38286 ft | 498 kts | 253° |
| 2026-05-06 14:22 | 27.13389 | 166.80320 | 38284 ft | 500 kts | 254° |
| 2026-05-06 14:23 | 27.11280 | 166.72914 | 38287 ft | 503 kts | 253° |
| 2026-05-06 14:23 | 27.09148 | 166.65437 | 38286 ft | 502 kts | 253° |
| 2026-05-06 14:24 | 27.07015 | 166.57986 | 38285 ft | 502 kts | 253° |
| 2026-05-06 14:24 | 27.04874 | 166.50522 | 38286 ft | 502 kts | 253° |
| 2026-05-06 14:25 | 27.02733 | 166.43072 | 38280 ft | 503 kts | 254° |
| 2026-05-06 14:25 | 27.00576 | 166.35584 | 38282 ft | 505 kts | 253° |
| 2026-05-06 14:26 | 26.98420 | 166.28118 | 38279 ft | 503 kts | 253° |
| 2026-05-06 14:26 | 26.96253 | 166.20633 | 38283 ft | 505 kts | 253° |
| 2026-05-06 14:27 | 26.94088 | 166.13160 | 38274 ft | 503 kts | 253° |
| 2026-05-06 14:27 | 26.91922 | 166.05706 | 38275 ft | 504 kts | 254° |
| 2026-05-06 14:28 | 26.89748 | 165.98236 | 38276 ft | 504 kts | 253° |
| 2026-05-06 14:28 | 26.87570 | 165.90781 | 38271 ft | 504 kts | 253° |
| 2026-05-06 14:29 | 26.85399 | 165.83358 | 38273 ft | 504 kts | 253° |
| 2026-05-06 14:29 | 26.83215 | 165.75907 | 38268 ft | 504 kts | 254° |
| 2026-05-06 14:30 | 26.81024 | 165.68448 | 38266 ft | 504 kts | 254° |
| 2026-05-06 14:30 | 26.78831 | 165.60999 | 38271 ft | 503 kts | 254° |
| 2026-05-06 14:31 | 26.76637 | 165.53563 | 38270 ft | 504 kts | 253° |
| 2026-05-06 14:31 | 26.74439 | 165.46128 | 38265 ft | 503 kts | 253° |
| 2026-05-06 14:32 | 26.72238 | 165.38707 | 38267 ft | 503 kts | 253° |
| 2026-05-06 14:32 | 26.70030 | 165.31266 | 38264 ft | 504 kts | 253° |
| 2026-05-06 14:33 | 26.67818 | 165.23832 | 38260 ft | 505 kts | 253° |
| 2026-05-06 14:33 | 26.65594 | 165.16370 | 38264 ft | 506 kts | 253° |
| 2026-05-06 14:34 | 26.63366 | 165.08915 | 38262 ft | 505 kts | 253° |
| 2026-05-06 14:34 | 26.61134 | 165.01466 | 38259 ft | 505 kts | 253° |
| 2026-05-06 14:35 | 26.58904 | 164.94038 | 38260 ft | 504 kts | 253° |
| 2026-05-06 14:35 | 26.56670 | 164.86611 | 38259 ft | 505 kts | 253° |
| 2026-05-06 14:36 | 26.54431 | 164.79181 | 38258 ft | 504 kts | 253° |
| 2026-05-06 14:36 | 26.52206 | 164.71818 | 38257 ft | 505 kts | 253° |
| 2026-05-06 14:37 | 26.49958 | 164.64388 | 38254 ft | 504 kts | 253° |
| 2026-05-06 14:37 | 26.47712 | 164.56985 | 38253 ft | 503 kts | 253° |
| 2026-05-06 14:38 | 26.45464 | 164.49587 | 38253 ft | 504 kts | 253° |
| 2026-05-06 14:38 | 26.43210 | 164.42185 | 38252 ft | 503 kts | 253° |
| 2026-05-06 14:39 | 26.40954 | 164.34796 | 38252 ft | 504 kts | 253° |
| 2026-05-06 14:39 | 26.38693 | 164.27401 | 38253 ft | 503 kts | 253° |
| 2026-05-06 14:40 | 26.36428 | 164.20014 | 38251 ft | 504 kts | 253° |
| 2026-05-06 14:40 | 26.34157 | 164.12614 | 38252 ft | 504 kts | 253° |
| 2026-05-06 14:41 | 26.31885 | 164.05233 | 38251 ft | 504 kts | 253° |
| 2026-05-06 14:41 | 26.29605 | 163.97842 | 38249 ft | 504 kts | 253° |
| 2026-05-06 14:42 | 26.27322 | 163.90454 | 38249 ft | 504 kts | 253° |
| 2026-05-06 14:42 | 26.25036 | 163.83069 | 38248 ft | 505 kts | 253° |
| 2026-05-06 14:43 | 26.22743 | 163.75680 | 38246 ft | 505 kts | 253° |
| 2026-05-06 14:43 | 26.20458 | 163.68331 | 38247 ft | 506 kts | 253° |
| 2026-05-06 14:44 | 26.18152 | 163.60927 | 38246 ft | 506 kts | 253° |
| 2026-05-06 14:45 | 26.14686 | 163.49833 | 38241 ft | 506 kts | 253° |
| 2026-05-06 14:45 | 26.12371 | 163.42439 | 38241 ft | 505 kts | 253° |
| 2026-05-06 14:46 | 26.10448 | 163.36311 | 38238 ft | 506 kts | 253° |
| 2026-05-06 14:46 | 26.08125 | 163.28919 | 38228 ft | 505 kts | 253° |
| 2026-05-06 14:47 | 26.05801 | 163.21541 | 38235 ft | 505 kts | 253° |
| 2026-05-06 14:47 | 26.03096 | 163.12967 | 38234 ft | 505 kts | 253° |
| 2026-05-06 14:48 | 26.01141 | 163.06785 | 38235 ft | 506 kts | 253° |
| 2026-05-06 14:48 | 25.98822 | 162.99465 | 38235 ft | 505 kts | 253° |
| 2026-05-06 14:49 | 25.96480 | 162.92090 | 38226 ft | 505 kts | 253° |
| 2026-05-06 14:49 | 25.94141 | 162.84738 | 38224 ft | 504 kts | 253° |
| 2026-05-06 14:50 | 25.91800 | 162.77393 | 38242 ft | 504 kts | 253° |
| 2026-05-06 14:50 | 25.89457 | 162.70054 | 38245 ft | 504 kts | 253° |
| 2026-05-06 14:51 | 25.87110 | 162.62719 | 38231 ft | 504 kts | 253° |
| 2026-05-06 14:51 | 25.84758 | 162.55383 | 38233 ft | 504 kts | 253° |
| 2026-05-06 14:52 | 25.82406 | 162.48064 | 38231 ft | 503 kts | 253° |
| 2026-05-06 14:52 | 25.80052 | 162.40749 | 38230 ft | 503 kts | 253° |